Data for 08/21/2012

Time Sea-Level Adjusted Pressure Absolute Pressure Temperature Relative Humidity Dew Point Precipitation   
(mb) (inHg) (mb) (inHg) (C) (F) (%) (C) (F) (mm) (in)
00:01 1022 30.18 851 25.13 14.2 57.6 46 3 37.4 0 0
00:02 1022 30.18 851 25.13 14.2 57.6 46 2.9 37.2 0 0
00:03 1022 30.18 851 25.13 14.2 57.5 47 3.2 37.7 0 0
00:04 1022 30.18 851 25.13 13.9 57 48 3.1 37.5 0 0
00:05 1022 30.18 851 25.13 13.7 56.7 48 2.9 37.3 0 0
00:06 1022 30.18 851 25.13 13.8 56.8 48 3 37.3 0 0
00:07 1022 30.18 851 25.13 13.7 56.6 49 3.1 37.6 0 0
00:08 1022 30.18 851 25.13 13.6 56.4 49 3.2 37.7 0 0
00:09 1022 30.18 851 25.13 13.4 56.2 51 3.6 38.5 0 0
00:10 1022 30.18 851 25.13 13.2 55.7 51 3.4 38.2 0 0
00:11 1022 30.18 851 25.13 13.1 55.5 51 3.3 38 0 0
00:12 1022 30.18 851 25.13 13.1 55.5 51 3.3 37.9 0 0
00:13 1022 30.18 851 25.13 13 55.4 53 3.7 38.7 0 0
00:14 1022 30.18 851 25.13 12.9 55.1 55 4.1 39.4 0 0
00:15 1022 30.18 851 25.13 12.4 54.3 57 4.1 39.4 0 0
00:16 1022 30.18 851 25.13 11.9 53.4 59 4.2 39.6 0 0
00:17 1022 30.18 851 25.13 11.5 52.7 61 4.3 39.7 0 0
00:18 1022 30.18 851 25.13 11.2 52.2 61 4.1 39.4 0 0
00:19 1022 30.18 851 25.13 11.3 52.3 60 3.9 39.1 0 0
00:20 1022 30.18 851 25.13 11.5 52.8 57 3.5 38.2 0 0
00:21 1022 30.18 851 25.13 12 53.5 56 3.4 38.2 0 0
00:22 1022 30.18 851 25.13 12.4 54.3 56 3.9 39 0 0
00:23 1022 30.18 851 25.13 12.5 54.5 55 3.8 38.9 0 0
00:24 1022 30.18 851 25.13 12.6 54.7 55 3.8 38.8 0 0
00:25 1022 30.18 851 25.13 12.6 54.7 55 3.8 38.9 0 0
00:26 1022 30.18 851 25.13 12.6 54.7 56 4.2 39.6 0 0
00:27 1022 30.18 851 25.13 12.5 54.4 57 4.2 39.5 0 0
00:28 1022 30.18 851 25.13 12.4 54.3 56 3.8 38.9 0 0
00:29 1022 30.18 851 25.13 12.5 54.5 54 3.6 38.5 0 0
00:30 1022 30.18 851 25.13 12.7 54.9 54 3.8 38.8 0 0
00:31 1022 30.18 851 25.13 12.8 55.1 55 4.1 39.4 0 0
00:32 1022 30.18 851 25.13 12.7 54.9 56 4.2 39.5 0 0
00:33 1022 30.18 851 25.13 12.6 54.6 56 4 39.2 0 0
00:34 1022 30.18 851 25.13 12.4 54.4 56 4 39.2 0 0
00:35 1022 30.18 851 25.13 12.2 54 58 4.2 39.6 0 0
00:36 1022 30.18 851 25.13 11.9 53.3 60 4.3 39.8 0 0
00:37 1022 30.18 851 25.13 11.5 52.7 60 4 39.3 0 0
00:38 1022 30.18 851 25.13 11.5 52.6 60 4.1 39.5 0 0
00:39 1022 30.18 851 25.13 11.4 52.4 61 4.2 39.5 0 0
00:40 1022 30.18 851 25.13 11.2 52.1 61 3.9 39 0 0
00:41 1022 30.18 851 25.13 11.3 52.3 59 3.7 38.7 0 0
00:42 1022 30.18 851 25.13 11.5 52.8 58 3.6 38.4 0 0
00:43 1022 30.18 851 25.13 11.9 53.4 56 3.4 38.1 0 0
00:44 1022 30.18 851 25.13 12.2 54 54 3.2 37.7 0 0
00:45 1022 30.18 851 25.13 12.6 54.6 53 3.2 37.8 0 0
00:46 1022 30.18 851 25.13 12.7 54.9 53 3.4 38.2 0 0
00:47 1022 30.18 851 25.13 12.8 55 53 3.5 38.3 0 0
00:48 1022 30.18 851 25.13 12.8 55.1 53 3.5 38.2 0 0
00:49 1022 30.18 851 25.13 12.8 55 54 3.8 38.8 0 0
00:50 1022 30.18 851 25.13 12.6 54.7 55 3.9 39 0 0
00:51 1022 30.18 851 25.13 12.3 54.1 57 3.9 39.1 0 0
00:52 1022 30.18 851 25.13 12 53.5 58 4 39.2 0 0
00:53 1022 30.18 851 25.13 11.7 53 58 3.7 38.7 0 0
00:54 1022 30.18 851 25.13 11.5 52.7 58 3.7 38.6 0 0
00:55 1022 30.18 851 25.13 11.4 52.6 58 3.4 38.2 0 0
00:56 1022 30.18 851 25.13 11.5 52.7 57 3.3 37.9 0 0
00:57 1022 30.18 851 25.13 11.7 53 56 3.2 37.7 0 0
00:58 1022 30.18 851 25.13 11.9 53.4 54 3 37.5 0 0
00:59 1022 30.18 851 25.13 12.3 54.1 53 3 37.4 0 0
01:00 1022 30.18 851 25.13 12.7 54.8 51 3 37.3 0 0
01:01 1022 30.18 851 25.13 13 55.4 50 2.9 37.3 0 0
01:02 1022 30.18 851 25.13 13.2 55.8 49 2.9 37.3 0 0
01:03 1022 30.18 851 25.13 13.4 56.1 49 3 37.4 0 0
01:04 1022 30.18 851 25.13 13.5 56.3 49 3.1 37.6 0 0
01:05 1022 30.18 851 25.13 13.5 56.3 50 3.2 37.8 0 0
01:06 1022 30.18 851 25.13 13.5 56.3 50 3.3 37.9 0 0
01:07 1022 30.18 851 25.13 13.4 56.1 50 3.4 38 0 0
01:08 1022 30.18 851 25.13 13.2 55.8 51 3.4 38.1 0 0
01:09 1022 30.18 851 25.13 13.1 55.5 54 4 39.2 0 0
01:10 1022 30.18 851 25.13 12.7 54.9 55 4.1 39.3 0 0
01:11 1022 30.18 851 25.13 12.3 54.2 55 3.7 38.6 0 0
01:12 1022 30.18 851 25.13 12.2 53.9 55 3.5 38.4 0 0
01:13 1022 30.18 851 25.13 12.1 53.7 56 3.6 38.5 0 0
01:14 1022 30.18 851 25.13 12 53.6 56 3.6 38.5 0 0
01:15 1022 30.18 851 25.13 12 53.5 56 3.5 38.2 0 0
01:16 1022 30.18 851 25.13 11.9 53.4 56 3.5 38.3 0 0
01:17 1022 30.18 851 25.13 11.8 53.3 57 3.5 38.4 0 0
01:18 1022 30.18 851 25.13 11.6 52.9 57 3.5 38.3 0 0
01:19 1022 30.18 851 25.13 11.4 52.6 58 3.5 38.2 0 0
01:20 1022 30.18 851 25.13 11.3 52.3 58 3.3 38 0 0
01:21 1022 30.18 851 25.13 11.2 52.2 58 3.3 37.9 0 0
01:22 1022 30.18 851 25.13 11.3 52.3 57 3.1 37.6 0 0
01:23 1022 30.18 851 25.13 11.5 52.8 56 3.1 37.6 0 0
01:24 1022 30.18 851 25.13 11.8 53.3 55 3 37.5 0 0
01:25 1022 30.18 851 25.13 12.1 53.8 54 3.1 37.5 0 0
01:26 1022 30.18 851 25.13 12.3 54.1 53 3.1 37.6 0 0
01:27 1022 30.18 851 25.13 12.3 54.1 53 3 37.5 0 0
01:28 1022 30.18 851 25.13 12.4 54.4 52 3 37.4 0 0
01:29 1022 30.18 851 25.13 12.6 54.6 53 3.2 37.8 0 0
01:30 1022 30.18 851 25.13 12.5 54.5 55 3.7 38.6 0 0
01:31 1022 30.18 851 25.13 12.2 54 56 3.6 38.6 0 0
01:32 1022 30.18 851 25.13 12.1 53.7 55 3.3 37.9 0 0
01:33 1022 30.18 851 25.13 12.1 53.7 55 3.3 38 0 0
01:34 1022 30.18 851 25.13 12.1 53.7 55 3.3 37.9 0 0
01:35 1022 30.18 851 25.13 12.1 53.7 55 3.4 38.2 0 0
01:36 1022 30.18 851 25.13 12 53.5 56 3.5 38.2 0 0
01:37 1022 30.18 851 25.13 12 53.6 54 3.2 37.7 0 0
01:38 1022 30.18 851 25.13 12.2 54 54 3.2 37.7 0 0
01:39 1022 30.18 851 25.13 12.4 54.4 53 3.1 37.6 0 0
01:40 1022 30.18 851 25.13 12.6 54.6 52 3.1 37.6 0 0
01:41 1022 30.18 851 25.13 12.6 54.7 52 3.2 37.8 0 0
01:42 1022 30.18 852 25.16 12.7 54.8 53 3.3 37.9 0 0
01:43 1022 30.18 851 25.13 12.6 54.7 54 3.7 38.6 0 0
01:44 1022 30.18 851 25.13 12.4 54.2 57 4.1 39.5 0 0
01:45 1022 30.18 851 25.13 11.9 53.4 58 4 39.2 0 0
01:46 1022 30.18 851 25.13 11.6 52.8 59 3.8 38.9 0 0
01:47 1022 30.18 851 25.13 11.3 52.3 60 3.9 39.1 0 0
01:48 1022 30.18 851 25.13 11.1 52 60 3.8 38.8 0 0
01:49 1022 30.18 851 25.13 11.1 51.9 60 3.7 38.6 0 0
01:50 1022 30.18 851 25.13 11.1 52 59 3.5 38.3 0 0
01:51 1022 30.18 851 25.13 11.1 52 59 3.4 38.2 0 0
01:52 1022 30.18 851 25.13 11.3 52.3 58 3.3 38 0 0
01:53 1022 30.18 851 25.13 11.4 52.4 58 3.4 38.2 0 0
01:54 1022 30.18 851 25.13 11.4 52.5 59 3.6 38.6 0 0
01:55 1022 30.18 851 25.13 11.2 52.2 60 3.8 38.8 0 0
01:56 1022 30.18 851 25.13 11.1 51.9 61 3.8 38.9 0 0
01:57 1022 30.18 851 25.13 11 51.8 61 3.8 38.9 0 0
01:58 1022 30.18 851 25.13 10.9 51.6 62 3.9 38.9 0 0
01:59 1022 30.18 851 25.13 10.8 51.4 62 3.7 38.7 0 0
02:00 1022 30.18 851 25.13 10.8 51.4 61 3.5 38.3 0 0
02:01 1022 30.18 851 25.13 10.9 51.5 60 3.4 38.1 0 0
02:02 1022 30.18 851 25.13 11 51.8 59 3.3 37.9 0 0
02:03 1022 30.18 851 25.13 11.2 52.1 59 3.4 38.1 0 0
02:04 1022 30.18 851 25.13 11.2 52.2 58 3.3 37.9 0 0
02:05 1022 30.18 851 25.13 11.4 52.5 57 3.1 37.6 0 0
02:06 1022 30.18 851 25.13 11.6 52.9 56 3.1 37.7 0 0
02:07 1022 30.18 851 25.13 11.9 53.3 55 3.1 37.6 0 0
02:08 1022 30.18 851 25.13 12.1 53.7 55 3.3 37.9 0 0
02:09 1022 30.18 851 25.13 12.1 53.8 55 3.3 38 0 0
02:10 1022 30.18 851 25.13 12.1 53.7 55 3.4 38.2 0 0
02:11 1022 30.18 851 25.13 11.9 53.3 56 3.5 38.2 0 0
02:12 1022 30.18 851 25.13 11.7 53 57 3.5 38.3 0 0
02:13 1022 30.18 851 25.13 11.4 52.6 58 3.4 38.2 0 0
02:14 1022 30.18 851 25.13 11.3 52.3 58 3.5 38.3 0 0
02:15 1022 30.18 851 25.13 11.2 52.1 58 3.3 38 0 0
02:16 1022 30.18 851 25.13 11.1 52 59 3.4 38.2 0 0
02:17 1022 30.18 851 25.13 11.1 51.9 59 3.5 38.3 0 0
02:18 1022 30.18 851 25.13 10.9 51.7 60 3.5 38.4 0 0
02:19 1022 30.18 851 25.13 10.8 51.5 60 3.5 38.3 0 0
02:20 1022 30.18 851 25.13 10.7 51.3 61 3.5 38.2 0 0
02:21 1022 30.18 851 25.13 10.6 51.1 61 3.5 38.2 0 0
02:22 1022 30.18 851 25.13 10.5 51 61 3.4 38 0 0
02:23 1022 30.18 851 25.13 10.6 51 60 3.2 37.8 0 0
02:24 1022 30.18 851 25.13 10.7 51.3 60 3.2 37.8 0 0
02:25 1022 30.18 851 25.13 10.7 51.2 61 3.5 38.3 0 0
02:26 1022 30.18 851 25.13 10.5 51 62 3.7 38.6 0 0
02:27 1022 30.18 851 25.13 10.3 50.6 63 3.6 38.4 0 0
02:28 1022 30.18 851 25.13 10.2 50.4 63 3.4 38.2 0 0
02:29 1022 30.18 851 25.13 10.3 50.5 63 3.5 38.3 0 0
02:30 1022 30.18 851 25.13 10.3 50.5 63 3.6 38.4 0 0
02:31 1022 30.18 851 25.13 10.3 50.5 63 3.5 38.4 0 0
02:32 1022 30.18 851 25.13 10.2 50.4 63 3.5 38.3 0 0
02:33 1022 30.18 851 25.13 10.3 50.6 62 3.3 38 0 0
02:34 1022 30.18 851 25.13 10.5 50.8 61 3.3 37.9 0 0
02:35 1022 30.18 851 25.13 10.6 51.2 60 3.3 38 0 0
02:36 1022 30.18 851 25.13 10.7 51.3 61 3.5 38.3 0 0
02:37 1022 30.18 851 25.13 10.6 51.1 61 3.5 38.2 0 0
02:38 1022 30.18 851 25.13 10.5 50.8 62 3.4 38.2 0 0
02:39 1022 30.18 851 25.13 10.4 50.7 61 3.4 38.1 0 0
02:40 1022 30.18 851 25.13 10.4 50.7 62 3.4 38.1 0 0
02:41 1022 30.18 851 25.13 10.3 50.6 62 3.4 38.2 0 0
02:42 1022 30.18 851 25.13 10.3 50.5 63 3.5 38.3 0 0
02:43 1022 30.18 851 25.13 10.2 50.4 63 3.4 38.2 0 0
02:44 1022 30.18 851 25.13 10.2 50.4 62 3.4 38.1 0 0
02:45 1022 30.18 851 25.13 10.3 50.5 62 3.4 38.1 0 0
02:46 1022 30.18 851 25.13 10.3 50.6 61 3.3 37.9 0 0
02:47 1022 30.18 851 25.13 10.5 50.9 60 3.1 37.5 0 0
02:48 1022 30.18 851 25.13 10.7 51.3 59 3.1 37.5 0 0
02:49 1022 30.18 851 25.13 10.8 51.5 59 3.1 37.6 0 0
02:50 1022 30.18 851 25.13 10.9 51.6 59 3.3 37.9 0 0
02:51 1022 30.18 851 25.13 10.9 51.6 60 3.5 38.2 0 0
02:52 1022 30.18 851 25.13 10.8 51.4 61 3.5 38.3 0 0
02:53 1022 30.18 851 25.13 10.7 51.3 60 3.3 37.9 0 0
02:54 1022 30.18 851 25.13 10.8 51.5 59 3.3 37.9 0 0
02:55 1022 30.18 851 25.13 11 51.7 59 3.2 37.8 0 0
02:56 1022 30.18 851 25.13 11.1 51.9 58 3.3 37.9 0 0
02:57 1022 30.18 851 25.13 11.2 52.1 58 3.3 38 0 0
02:58 1022 30.18 851 25.13 11.3 52.4 57 3.3 37.9 0 0
02:59 1022 30.18 851 25.13 11.7 53 55 2.9 37.2 0 0
03:00 1022 30.18 851 25.13 12.2 54 53 2.9 37.3 0 0
03:01 1022 30.18 851 25.13 12.7 54.8 50 2.7 36.8 0 0
03:02 1022 30.18 851 25.13 13.2 55.7 49 2.8 37 0 0
03:03 1022 30.18 851 25.13 13.5 56.3 48 2.9 37.1 0 0
03:04 1022 30.18 851 25.13 13.7 56.6 48 2.9 37.2 0 0
03:05 1022 30.18 851 25.13 13.8 56.9 47 2.9 37.2 0 0
03:06 1022 30.18 851 25.13 13.9 57 47 3 37.4 0 0
03:07 1022 30.18 851 25.13 13.9 57.1 48 3.1 37.5 0 0
03:08 1022 30.18 851 25.13 13.8 56.9 48 3.1 37.5 0 0
03:09 1022 30.18 851 25.13 13.8 56.8 49 3.2 37.8 0 0
03:10 1022 30.18 851 25.13 13.6 56.5 49 3.2 37.7 0 0
03:11 1022 30.18 851 25.13 13.5 56.4 48 2.9 37.3 0 0
03:12 1022 30.18 851 25.13 13.7 56.6 47 2.8 37 0 0
03:13 1022 30.18 851 25.13 13.8 56.8 47 2.8 37 0 0
03:14 1022 30.18 851 25.13 13.9 57.1 47 3 37.4 0 0
03:15 1022 30.18 851 25.13 13.9 57 48 3.1 37.5 0 0
03:16 1022 30.18 851 25.13 13.9 56.9 49 3.4 38.1 0 0
03:17 1022 30.18 851 25.13 13.6 56.6 50 3.4 38.1 0 0
03:18 1022 30.18 851 25.13 13.5 56.3 50 3.4 38.2 0 0
03:19 1022 30.18 851 25.13 13.3 55.9 51 3.6 38.4 0 0
03:20 1022 30.18 851 25.13 13 55.3 53 3.6 38.5 0 0
03:21 1022 30.18 851 25.13 12.7 54.9 54 3.6 38.4 0 0
03:22 1022 30.18 851 25.13 12.5 54.4 54 3.6 38.4 0 0
03:23 1022 30.18 851 25.13 12.2 53.9 55 3.6 38.5 0 0
03:24 1022 30.18 851 25.13 11.9 53.5 56 3.5 38.3 0 0
03:25 1022 30.18 851 25.13 11.7 53 57 3.6 38.4 0 0
03:26 1022 30.18 851 25.13 11.4 52.6 58 3.5 38.3 0 0
03:27 1022 30.18 851 25.13 11.2 52.2 59 3.4 38.2 0 0
03:28 1022 30.18 851 25.13 11.1 51.9 59 3.5 38.2 0 0
03:29 1022 30.18 851 25.13 11 51.7 60 3.5 38.2 0 0
03:30 1022 30.18 851 25.13 10.9 51.6 60 3.4 38.2 0 0
03:31 1022 30.18 851 25.13 10.7 51.3 60 3.4 38.1 0 0
03:32 1022 30.18 851 25.13 10.7 51.2 60 3.4 38.1 0 0
03:33 1022 30.18 851 25.13 10.7 51.2 60 3.4 38 0 0
03:34 1022 30.18 851 25.13 10.7 51.3 60 3.4 38.1 0 0
03:35 1022 30.18 851 25.13 10.7 51.3 60 3.3 38 0 0
03:36 1022 30.18 851 25.13 10.8 51.5 59 3.2 37.7 0 0
03:37 1022 30.18 851 25.13 11.2 52.2 57 3 37.5 0 0
03:38 1022 30.18 851 25.13 11.8 53.2 55 3.1 37.6 0 0
03:39 1022 30.18 851 25.13 12.2 53.9 54 3.1 37.6 0 0
03:40 1022 30.18 851 25.13 12.4 54.2 54 3.4 38.1 0 0
03:41 1022 30.18 851 25.13 12.2 54 55 3.5 38.2 0 0
03:42 1022 30.18 851 25.13 12 53.6 57 3.7 38.6 0 0
03:43 1022 30.18 851 25.13 11.7 53 57 3.5 38.4 0 0
03:44 1022 30.18 851 25.13 11.6 52.8 57 3.4 38.1 0 0
03:45 1022 30.18 851 25.13 11.7 53 57 3.5 38.3 0 0
03:46 1022 30.18 851 25.13 11.6 52.9 57 3.5 38.3 0 0
03:47 1022 30.18 851 25.13 11.6 52.8 57 3.3 38 0 0
03:48 1022 30.18 851 25.13 11.8 53.2 55 3 37.5 0 0
03:49 1022 30.18 851 25.13 12.1 53.7 55 3.4 38.1 0 0
03:50 1022 30.18 851 25.13 12 53.6 56 3.5 38.3 0 0
03:51 1022 30.18 851 25.13 11.8 53.3 56 3.3 38 0 0
03:52 1022 30.18 851 25.13 11.8 53.2 56 3.3 38 0 0
03:53 1022 30.18 851 25.13 11.8 53.2 56 3.2 37.8 0 0
03:54 1022 30.18 851 25.13 11.8 53.2 56 3.2 37.8 0 0
03:55 1022 30.18 851 25.13 11.8 53.2 56 3.2 37.8 0 0
03:56 1022 30.18 851 25.13 11.8 53.2 56 3.4 38.2 0 0
03:57 1022 30.18 851 25.13 11.6 53 57 3.5 38.3 0 0
03:58 1022 30.18 851 25.13 11.5 52.7 58 3.5 38.2 0 0
03:59 1022 30.18 851 25.13 11.4 52.6 57 3.3 37.9 0 0
04:00 1022 30.18 851 25.13 11.4 52.5 57 3.2 37.8 0 0
04:01 1022 30.18 851 25.13 11.3 52.4 57 3.3 37.9 0 0
04:02 1022 30.18 851 25.13 11.2 52.2 57 3.2 37.8 0 0
04:03 1022 30.18 851 25.13 11.2 52.2 58 3.2 37.8 0 0
04:04 1022 30.18 851 25.13 11.2 52.1 58 3.3 37.9 0 0
04:05 1022 30.18 851 25.13 11.1 52.1 58 3.2 37.8 0 0
04:06 1022 30.18 851 25.13 11.1 52 58 3.1 37.7 0 0
04:07 1022 30.18 851 25.13 11.1 52 57 3 37.4 0 0
04:08 1022 30.18 851 25.13 11.2 52.2 57 3 37.4 0 0
04:09 1022 30.18 851 25.13 11.2 52.2 57 3.1 37.5 0 0
04:10 1022 30.18 851 25.13 11.1 51.9 58 3.2 37.8 0 0
04:11 1022 30.18 851 25.13 10.8 51.4 60 3.3 37.9 0 0
04:12 1022 30.18 851 25.13 10.7 51.3 59 3.2 37.7 0 0
04:13 1022 30.18 851 25.13 10.7 51.3 59 3.2 37.7 0 0
04:14 1022 30.18 851 25.13 10.8 51.5 59 3.1 37.5 0 0
04:15 1022 30.18 851 25.13 10.9 51.6 58 3 37.4 0 0
04:16 1022 30.18 851 25.13 11.1 51.9 58 3.1 37.5 0 0
04:17 1022 30.18 851 25.13 11.1 51.9 58 3.1 37.5 0 0
04:18 1022 30.18 851 25.13 11 51.8 58 3.1 37.6 0 0
04:19 1022 30.18 851 25.13 11 51.8 58 3.1 37.5 0 0
04:20 1022 30.18 851 25.13 11.1 52 58 3.1 37.6 0 0
04:21 1022 30.18 851 25.13 11.1 51.9 58 3.1 37.6 0 0
04:22 1022 30.18 851 25.13 11.1 51.9 58 3.3 37.9 0 0
04:23 1022 30.18 851 25.13 10.9 51.6 59 3.2 37.8 0 0
04:24 1022 30.18 851 25.13 10.7 51.2 60 3.4 38.1 0 0
04:25 1022 30.18 851 25.13 10.4 50.7 62 3.4 38.1 0 0
04:26 1022 30.18 851 25.13 10.1 50.3 63 3.4 38.1 0 0
04:27 1022 30.18 851 25.13 10.1 50.1 62 3.2 37.8 0 0
04:28 1022 30.18 851 25.13 10.2 50.4 61 3 37.5 0 0
04:29 1022 30.18 851 25.13 10.5 50.9 60 3.1 37.5 0 0
04:30 1022 30.18 851 25.13 10.8 51.4 59 3.2 37.7 0 0
04:31 1022 30.18 851 25.13 10.9 51.7 59 3.2 37.8 0 0
04:32 1022 30.18 851 25.13 11 51.8 59 3.3 37.9 0 0
04:33 1022 30.18 851 25.13 11 51.9 58 3.2 37.7 0 0
04:34 1022 30.18 851 25.13 11.2 52.2 57 3.1 37.5 0 0
04:35 1022 30.18 851 25.13 11.4 52.5 57 3.2 37.8 0 0
04:36 1022 30.18 851 25.13 11.4 52.5 58 3.6 38.5 0 0
04:37 1022 30.18 851 25.13 11.2 52.2 59 3.5 38.3 0 0
04:38 1022 30.18 851 25.13 11.1 52 59 3.4 38.2 0 0
04:39 1022 30.18 851 25.13 11.1 51.9 59 3.5 38.3 0 0
04:40 1022 30.18 851 25.13 11.1 51.9 59 3.3 37.9 0 0
04:41 1022 30.18 851 25.13 11.2 52.1 58 3.3 38 0 0
04:42 1022 30.18 851 25.13 11.3 52.3 58 3.3 38 0 0
04:43 1022 30.18 851 25.13 11.3 52.4 58 3.4 38.1 0 0
04:44 1022 30.18 851 25.13 11.3 52.4 58 3.3 38 0 0
04:45 1022 30.18 851 25.13 11.3 52.4 58 3.3 38 0 0
04:46 1022 30.18 851 25.13 11.3 52.4 58 3.3 38 0 0
04:47 1022 30.18 851 25.13 11.2 52.2 59 3.5 38.3 0 0
04:48 1022 30.18 851 25.13 11 51.8 60 3.6 38.5 0 0
04:49 1022 30.18 851 25.13 10.8 51.4 60 3.4 38.2 0 0
04:50 1022 30.18 851 25.13 10.6 51.1 61 3.4 38.1 0 0
04:51 1022 30.18 851 25.13 10.5 51 61 3.4 38.1 0 0
04:52 1022 30.18 851 25.13 10.5 50.9 61 3.4 38.2 0 0
04:53 1022 30.18 851 25.13 10.5 50.9 61 3.2 37.8 0 0
04:54 1022 30.18 851 25.13 10.6 51 60 3.2 37.8 0 0
04:55 1022 30.18 851 25.13 10.6 51 60 3.3 37.9 0 0
04:56 1022 30.18 851 25.13 10.5 50.8 61 3.2 37.8 0 0
04:57 1022 30.18 851 25.13 10.5 50.8 60 3.1 37.6 0 0
04:58 1022 30.18 851 25.13 10.6 51.1 60 3.1 37.6 0 0
04:59 1022 30.18 851 25.13 10.6 51.1 60 3.3 37.9 0 0
05:00 1022 30.18 851 25.13 10.5 50.8 61 3.4 38.1 0 0
05:01 1022 30.18 851 25.13 10.3 50.5 62 3.4 38.2 0 0
05:02 1022 30.18 851 25.13 10 49.9 64 3.4 38.1 0 0
05:03 1022 30.18 851 25.13 9.7 49.5 65 3.5 38.3 0 0
05:04 1022 30.18 851 25.13 9.4 49 66 3.4 38.1 0 0
05:05 1022 30.18 851 25.13 9.2 48.6 66 3.3 37.9 0 0
05:06 1022 30.18 851 25.13 9.2 48.6 66 3.2 37.7 0 0
05:07 1022 30.18 851 25.13 9.4 48.8 65 3.1 37.5 0 0
05:08 1022 30.18 851 25.13 9.6 49.2 64 3.1 37.5 0 0
05:09 1022 30.18 851 25.13 9.7 49.5 63 3.2 37.7 0 0
05:10 1022 30.18 851 25.13 9.9 49.8 63 3.3 37.9 0 0
05:11 1022 30.18 851 25.13 9.9 49.9 63 3.3 38 0 0
05:12 1022 30.18 851 25.13 9.9 49.8 63 3.3 37.9 0 0
05:13 1022 30.18 851 25.13 9.9 49.9 63 3.1 37.7 0 0
05:14 1022 30.18 851 25.13 10.1 50.1 62 3.2 37.8 0 0
05:15 1022 30.18 851 25.13 10.1 50.3 62 3.2 37.8 0 0
05:16 1022 30.18 851 25.13 10.3 50.6 61 3.2 37.8 0 0
05:17 1022 30.18 851 25.13 10.5 50.9 60 3.2 37.8 0 0
05:18 1022 30.18 851 25.13 10.6 51.1 61 3.4 38 0 0
05:19 1022 30.18 851 25.13 10.6 51.1 61 3.4 38.2 0 0
05:20 1022 30.18 851 25.13 10.6 51 61 3.4 38.1 0 0
05:21 1022 30.18 851 25.13 10.5 51 61 3.4 38.2 0 0
05:22 1022 30.18 851 25.13 10.5 50.9 62 3.5 38.3 0 0
05:23 1022 30.18 851 25.13 10.4 50.7 62 3.5 38.4 0 0
05:24 1022 30.18 851 25.13 10.3 50.5 63 3.5 38.3 0 0
05:25 1022 30.18 851 25.13 10.2 50.4 63 3.5 38.4 0 0
05:26 1022 30.18 851 25.13 10.2 50.3 64 3.6 38.6 0 0
05:27 1022 30.18 851 25.13 10.1 50.2 63 3.5 38.3 0 0
05:28 1022 30.18 851 25.13 10.2 50.3 64 3.6 38.5 0 0
05:29 1022 30.18 851 25.13 10.1 50.1 64 3.5 38.4 0 0
05:30 1022 30.18 851 25.13 9.9 49.9 64 3.5 38.3 0 0
05:31 1022 30.18 851 25.13 9.9 49.8 64 3.5 38.3 0 0
05:32 1022 30.18 851 25.13 9.8 49.6 65 3.5 38.3 0 0
05:33 1022 30.18 851 25.13 9.5 49.1 66 3.5 38.2 0 0
05:34 1022 30.18 851 25.13 9.4 48.9 65 3.2 37.7 0 0
05:35 1022 30.18 851 25.13 9.6 49.3 64 3.1 37.6 0 0
05:36 1022 30.18 851 25.13 9.7 49.5 64 3.2 37.8 0 0
05:37 1022 30.18 851 25.13 9.8 49.7 64 3.3 38 0 0
05:38 1022 30.18 851 25.13 9.8 49.6 64 3.3 37.9 0 0
05:39 1022 30.18 851 25.13 9.9 49.7 64 3.3 38 0 0
05:40 1022 30.18 851 25.13 9.8 49.6 64 3.4 38.1 0 0
05:41 1022 30.18 851 25.13 9.8 49.6 64 3.4 38.1 0 0
05:42 1022 30.18 851 25.13 9.7 49.5 64 3.4 38.1 0 0
05:43 1022 30.18 851 25.13 9.7 49.4 65 3.4 38.1 0 0
05:44 1022 30.18 851 25.13 9.6 49.2 65 3.3 38 0 0
05:45 1022 30.18 851 25.13 9.5 49.1 65 3.3 37.9 0 0
05:46 1022 30.18 851 25.13 9.4 48.9 65 3.2 37.8 0 0
05:47 1022 30.18 851 25.13 9.4 48.9 65 3.1 37.7 0 0
05:48 1022 30.18 851 25.13 9.4 49 65 3.2 37.8 0 0
05:49 1022 30.18 851 25.13 9.4 49 65 3.2 37.7 0 0
05:50 1022 30.18 851 25.13 9.6 49.2 64 3.2 37.7 0 0
05:51 1022 30.18 851 25.13 9.7 49.4 64 3.2 37.7 0 0
05:52 1022 30.18 851 25.13 9.7 49.5 64 3.3 37.9 0 0
05:53 1022 30.18 851 25.13 9.8 49.6 63 3 37.4 0 0
05:54 1022 30.18 851 25.13 10.1 50.2 60 2.8 37 0 0
05:55 1022 30.18 851 25.13 10.5 50.9 59 3 37.3 0 0
05:56 1022 30.18 851 25.13 10.6 51.1 60 3.1 37.6 0 0
05:57 1022 30.18 851 25.13 10.6 51 60 3.2 37.7 0 0
05:58 1022 30.18 851 25.13 10.5 50.9 61 3.3 37.9 0 0
05:59 1022 30.18 851 25.13 10.4 50.7 62 3.4 38.1 0 0
06:00 1022 30.18 851 25.13 10.2 50.4 63 3.4 38.2 0 0
06:01 1022 30.18 851 25.13 10 50.1 63 3.4 38.1 0 0
06:02 1022 30.18 851 25.13 10 49.9 64 3.5 38.2 0 0
06:03 1022 30.18 851 25.13 9.8 49.7 64 3.4 38.1 0 0
06:04 1022 30.18 851 25.13 9.8 49.7 63 3.2 37.8 0 0
06:05 1022 30.18 851 25.13 10 50 62 3.2 37.7 0 0
06:06 1022 30.18 851 25.13 10.2 50.3 62 3.2 37.7 0 0
06:07 1022 30.18 851 25.13 10.3 50.5 61 3.2 37.7 0 0
06:08 1022 30.18 851 25.13 10.3 50.6 61 3.2 37.7 0 0
06:09 1022 30.18 851 25.13 10.4 50.7 61 3.1 37.7 0 0
06:10 1022 30.18 851 25.13 10.5 50.9 60 3.1 37.6 0 0
06:11 1022 30.18 851 25.13 10.5 50.9 60 3.2 37.7 0 0
06:12 1022 30.18 851 25.13 10.5 50.9 61 3.3 37.9 0 0
06:13 1022 30.18 851 25.13 10.3 50.6 62 3.4 38.1 0 0
06:14 1022 30.18 851 25.13 10.1 50.1 63 3.4 38.1 0 0
06:15 1022 30.18 851 25.13 9.8 49.7 64 3.4 38.1 0 0
06:16 1022 30.18 851 25.13 9.6 49.3 65 3.4 38.1 0 0
06:17 1022 30.18 851 25.13 9.5 49 65 3.2 37.8 0 0
06:18 1022 30.18 851 25.13 9.5 49.1 64 3.2 37.7 0 0
06:19 1022 30.18 851 25.13 9.6 49.4 64 3.1 37.7 0 0
06:20 1022 30.18 851 25.13 9.8 49.7 63 3.1 37.6 0 0
06:21 1022 30.18 851 25.13 10 50 63 3.3 37.9 0 0
06:22 1022 30.18 851 25.13 10.2 50.3 62 3.3 38 0 0
06:23 1022 30.18 851 25.13 10.2 50.4 63 3.5 38.3 0 0
06:24 1022 30.18 851 25.13 10.3 50.5 63 3.7 38.6 0 0
06:25 1022 30.18 851 25.13 10.2 50.4 63 3.6 38.5 0 0
06:26 1022 30.18 851 25.13 10.3 50.5 63 3.5 38.3 0 0
06:27 1022 30.18 851 25.13 10.4 50.7 63 3.7 38.6 0 0
06:28 1022 30.18 851 25.13 10.3 50.5 62 3.4 38.1 0 0
06:29 1022 30.18 851 25.13 10.3 50.6 61 3.3 37.9 0 0
06:30 1022 30.18 851 25.13 10.5 50.9 61 3.4 38.1 0 0
06:31 1022 30.18 851 25.13 10.6 51.1 61 3.4 38.2 0 0
06:32 1022 30.18 851 25.13 10.7 51.3 61 3.5 38.3 0 0
06:33 1022 30.18 851 25.13 10.6 51 61 3.4 38.2 0 0
06:34 1022 30.18 851 25.13 10.4 50.6 62 3.5 38.3 0 0
06:35 1022 30.18 851 25.13 10.2 50.3 63 3.5 38.2 0 0
06:36 1022 30.18 851 25.13 10 50 64 3.4 38.2 0 0
06:37 1022 30.18 851 25.13 9.9 49.7 63 3.2 37.8 0 0
06:38 1022 30.18 851 25.13 9.9 49.8 63 3.3 37.9 0 0
06:39 1022 30.18 851 25.13 9.9 49.7 64 3.3 38 0 0
06:40 1022 30.18 851 25.13 9.8 49.6 64 3.3 38 0 0
06:41 1022 30.18 851 25.13 9.7 49.5 64 3.2 37.8 0 0
06:42 1022 30.18 851 25.13 9.8 49.6 64 3.2 37.8 0 0
06:43 1022 30.18 851 25.13 9.8 49.6 64 3.3 37.9 0 0
06:44 1022 30.18 851 25.13 9.9 49.7 63 3.3 37.9 0 0
06:45 1022 30.18 851 25.13 9.8 49.7 64 3.4 38.1 0 0
06:46 1022 30.18 851 25.13 9.7 49.5 65 3.4 38.1 0 0
06:47 1022 30.18 851 25.13 9.7 49.4 65 3.4 38.2 0 0
06:48 1022 30.18 851 25.13 9.5 49.1 66 3.5 38.3 0 0
06:49 1022 30.18 851 25.13 9.4 49 66 3.5 38.2 0 0
06:50 1022 30.18 851 25.13 9.4 48.9 66 3.5 38.3 0 0
06:51 1022 30.18 851 25.13 9.4 48.8 66 3.4 38 0 0
06:52 1022 30.18 851 25.13 9.5 49.2 65 3.4 38.2 0 0
06:53 1022 30.18 851 25.13 9.7 49.4 65 3.5 38.3 0 0
06:54 1022 30.18 851 25.13 9.7 49.4 66 3.6 38.5 0 0
06:55 1022 30.18 851 25.13 9.5 49.1 67 3.7 38.6 0 0
06:56 1022 30.18 851 25.13 9.3 48.8 68 3.7 38.7 0 0
06:57 1022 30.18 851 25.13 9.2 48.5 69 3.7 38.7 0 0
06:58 1022 30.18 851 25.13 9 48.3 69 3.7 38.6 0 0
06:59 1022 30.18 851 25.13 9 48.2 69 3.7 38.6 0 0
07:00 1022 30.18 851 25.13 9 48.1 69 3.7 38.7 0 0
07:01 1022 30.18 851 25.13 8.9 48 70 3.7 38.7 0 0
07:02 1022 30.18 851 25.13 8.9 47.9 69 3.6 38.5 0 0
07:03 1022 30.18 851 25.13 8.9 48.1 69 3.6 38.4 0 0
07:04 1022 30.18 851 25.13 9 48.2 69 3.7 38.6 0 0
07:05 1022 30.18 851 25.13 9 48.3 69 3.7 38.7 0 0
07:06 1022 30.18 851 25.13 9.1 48.3 68 3.6 38.4 0 0
07:07 1022 30.18 851 25.13 9.2 48.5 68 3.5 38.3 0 0
07:08 1022 30.18 851 25.13 9.4 48.8 67 3.6 38.5 0 0
07:09 1022 30.18 851 25.13 9.5 49.2 66 3.6 38.5 0 0
07:10 1022 30.18 851 25.13 9.7 49.4 66 3.7 38.7 0 0
07:11 1022 30.18 851 25.13 9.7 49.5 66 3.8 38.8 0 0
07:12 1022 30.18 851 25.13 9.8 49.6 66 3.7 38.7 0 0
07:13 1022 30.18 851 25.13 9.8 49.6 66 3.8 38.8 0 0
07:14 1022 30.18 851 25.13 9.8 49.6 66 3.7 38.7 0 0
07:15 1022 30.18 851 25.13 9.8 49.7 66 3.9 39 0 0
07:16 1022 30.18 851 25.13 9.8 49.6 67 4 39.2 0 0
07:17 1022 30.18 851 25.13 9.9 49.7 65 3.6 38.5 0 0
07:18 1022 30.18 851 25.13 10.1 50.1 65 3.8 38.9 0 0
07:19 1022 30.18 851 25.13 10.2 50.3 64 3.7 38.7 0 0
07:20 1022 30.18 851 25.13 10.3 50.5 64 3.8 38.9 0 0
07:21 1022 30.18 851 25.13 10.4 50.7 63 3.7 38.7 0 0
07:22 1022 30.18 851 25.13 10.5 51 63 3.8 38.9 0 0
07:23 1022 30.18 851 25.13 10.6 51.2 63 4 39.3 0 0
07:24 1022 30.18 851 25.13 10.7 51.2 64 4.2 39.5 0 0
07:25 1022 30.18 851 25.13 10.6 51.1 64 4.1 39.3 0 0
07:26 1022 30.18 851 25.13 10.6 51.2 64 4.1 39.3 0 0
07:27 1022 30.18 851 25.13 10.7 51.2 63 4 39.3 0 0
07:28 1022 30.18 851 25.13 10.7 51.3 63 4.1 39.3 0 0
07:29 1022 30.18 851 25.13 10.8 51.5 64 4.2 39.6 0 0
07:30 1022 30.18 851 25.13 10.9 51.7 63 4.3 39.8 0 0
07:31 1022 30.18 851 25.13 11.1 51.9 63 4.3 39.8 0 0
07:32 1022 30.18 851 25.13 11.2 52.1 63 4.5 40.1 0 0
07:33 1022 30.18 851 25.13 11.3 52.4 63 4.5 40.1 0 0
07:34 1022 30.18 851 25.13 11.5 52.6 62 4.6 40.2 0 0
07:35 1022 30.18 851 25.13 11.6 52.9 62 4.6 40.2 0 0
07:36 1022 30.18 851 25.13 11.8 53.2 62 4.7 40.5 0 0
07:37 1022 30.18 851 25.13 11.9 53.5 60 4.4 39.9 0 0
07:38 1022 30.18 851 25.13 12.2 53.9 58 4.2 39.6 0 0
07:39 1022 30.18 851 25.13 12.4 54.3 58 4.4 39.9 0 0
07:40 1022 30.18 851 25.13 12.6 54.7 58 4.7 40.5 0 0
07:41 1022 30.18 851 25.13 12.7 54.8 57 4.5 40.2 0 0
07:42 1022 30.18 851 25.13 12.9 55.1 56 4.5 40 0 0
07:43 1022 30.18 851 25.13 13 55.4 56 4.6 40.2 0 0
07:44 1022 30.18 851 25.13 13.1 55.6 55 4.5 40 0 0
07:45 1022 30.18 851 25.13 13.3 55.9 56 4.8 40.6 0 0
07:46 1022 30.18 851 25.13 13.3 56 55 4.7 40.4 0 0
07:47 1022 30.18 851 25.13 13.5 56.3 54 4.5 40.1 0 0
07:48 1022 30.18 851 25.13 13.6 56.5 54 4.5 40.1 0 0
07:49 1022 30.18 851 25.13 13.7 56.6 56 5 41.1 0 0
07:50 1022 30.18 851 25.13 13.6 56.5 54 4.5 40.1 0 0
07:51 1022 30.18 851 25.13 13.6 56.5 54 4.6 40.3 0 0
07:52 1022 30.18 851 25.13 13.6 56.4 54 4.5 40.1 0 0
07:53 1022 30.18 851 25.13 13.5 56.3 55 4.8 40.6 0 0
07:54 1022 30.18 851 25.13 13.4 56.1 57 5.1 41.2 0 0
07:55 1022 30.18 851 25.13 13.3 55.9 57 5 41 0 0
07:56 1022 30.18 851 25.13 13.1 55.6 59 5.3 41.5 0 0
07:57 1022 30.18 851 25.13 13 55.4 59 5.3 41.6 0 0
07:58 1022 30.18 851 25.13 13 55.4 60 5.4 41.7 0 0
07:59 1022 30.18 851 25.13 13 55.3 59 5.2 41.4 0 0
08:00 1022 30.18 851 25.13 13 55.5 57 4.9 40.8 0 0
08:01 1022 30.18 851 25.13 13.2 55.7 58 5.2 41.4 0 0
08:02 1022 30.18 851 25.13 13.3 55.9 56 4.8 40.7 0 0
08:03 1022 30.18 851 25.13 13.4 56.2 58 5.4 41.8 0 0
08:04 1022 30.18 851 25.13 13.6 56.4 57 5.3 41.5 0 0
08:05 1022 30.18 851 25.13 13.7 56.6 58 5.7 42.3 0 0
08:06 1022 30.18 851 25.13 13.9 56.9 57 5.4 41.8 0 0
08:07 1022 30.18 851 25.13 14.1 57.3 55 5.2 41.4 0 0
08:08 1022 30.18 851 25.13 14.3 57.7 55 5.5 41.9 0 0
08:09 1022 30.18 851 25.13 14.4 58 54 5.4 41.7 0 0
08:10 1022 30.18 851 25.13 14.6 58.2 56 5.9 42.6 0 0
08:11 1022 30.18 851 25.13 14.8 58.6 54 5.6 42 0 0
08:12 1022 30.18 851 25.13 15 58.9 52 5.4 41.8 0 0
08:13 1022 30.18 851 25.13 15.2 59.3 50 5 41 0 0
08:14 1022 30.18 851 25.13 15.4 59.7 50 5.2 41.3 0 0
08:15 1022 30.18 851 25.13 15.6 60 50 5.3 41.5 0 0
08:16 1022 30.18 851 25.13 15.8 60.5 46 4.2 39.6 0 0
08:17 1022 30.18 851 25.13 16 60.9 46 4.7 40.4 0 0
08:18 1022 30.18 851 25.13 16.2 61.2 47 4.9 40.9 0 0
08:19 1022 30.18 851 25.13 16.3 61.4 47 5.2 41.3 0 0
08:20 1022 30.18 851 25.13 16.5 61.6 46 5 41 0 0
08:21 1022 30.18 851 25.13 16.6 61.9 47 5.2 41.4 0 0
08:22 1022 30.18 851 25.13 16.7 62.1 46 5.1 41.2 0 0
08:23 1022 30.18 851 25.13 16.8 62.2 45 5 41 0 0
08:24 1022 30.18 851 25.13 16.8 62.2 45 4.9 40.8 0 0
08:25 1022 30.18 851 25.13 16.7 62.1 44 4.5 40.1 0 0
08:26 1022 30.18 851 25.13 16.8 62.2 44 4.6 40.3 0 0
08:27 1022 30.18 851 25.13 16.7 62.1 45 4.9 40.8 0 0
08:28 1022 30.18 851 25.13 16.7 62.1 49 5.9 42.7 0 0
08:29 1022 30.18 851 25.13 16.8 62.2 46 5.2 41.4 0 0
08:30 1022 30.18 851 25.13 16.7 62.1 48 5.8 42.4 0 0
08:31 1022 30.18 851 25.13 16.8 62.2 47 5.4 41.7 0 0
08:32 1022 30.18 851 25.13 16.8 62.2 46 5.1 41.1 0 0
08:33 1022 30.18 851 25.13 16.8 62.2 47 5.5 41.9 0 0
08:34 1022 30.18 851 25.13 16.9 62.4 47 5.6 42 0 0
08:35 1022 30.18 851 25.13 17 62.5 48 6.1 43 0 0
08:36 1022 30.18 851 25.13 17.1 62.7 46 5.4 41.8 0 0
08:37 1022 30.18 851 25.13 17.2 62.9 46 5.5 41.8 0 0
08:38 1022 30.18 851 25.13 17.2 63 46 5.5 41.8 0 0
08:39 1022 30.18 851 25.13 17.3 63.1 44 5.1 41.2 0 0
08:40 1022 30.18 851 25.13 17.4 63.2 48 6.3 43.4 0 0
08:41 1022 30.18 851 25.13 17.4 63.4 47 6.1 43 0 0
08:42 1022 30.18 851 25.13 17.6 63.6 43 4.8 40.7 0 0
08:43 1022 30.18 851 25.13 17.7 63.9 43 5 40.9 0 0
08:44 1022 30.18 851 25.13 17.8 64 45 5.8 42.4 0 0
08:45 1022 30.18 851 25.13 17.9 64.2 43 5.3 41.6 0 0
08:46 1022 30.18 851 25.13 18 64.3 41 4.5 40.2 0 0
08:47 1022 30.18 851 25.13 18 64.5 40 4.4 39.9 0 0
08:48 1022 30.18 851 25.13 18.1 64.7 42 5.2 41.3 0 0
08:49 1022 30.18 851 25.13 18.2 64.8 40 4.4 39.9 0 0
08:50 1022 30.18 851 25.13 18.3 64.9 43 5.7 42.3 0 0
08:51 1022 30.18 851 25.13 18.4 65 42 5.3 41.5 0 0
08:52 1022 30.18 851 25.13 18.4 65.1 40 4.6 40.2 0 0
08:53 1022 30.18 851 25.13 18.5 65.2 44 6 42.9 0 0
08:54 1022 30.18 851 25.13 18.5 65.3 42 5.4 41.7 0 0
08:55 1022 30.18 851 25.13 18.6 65.5 39 4.6 40.2 0 0
08:56 1022 30.18 851 25.13 18.6 65.5 39 4.6 40.2 0 0
08:57 1022 30.18 851 25.13 18.7 65.6 41 5.4 41.7 0 0
08:58 1022 30.18 851 25.13 18.7 65.6 39 4.7 40.4 0 0
08:59 1022 30.18 851 25.13 18.7 65.6 39 4.7 40.4 0 0
09:00 1022 30.18 851 25.13 18.6 65.5 40 5 41 0 0
09:01 1022 30.18 851 25.13 18.7 65.6 41 5.2 41.4 0 0
09:02 1022 30.18 851 25.13 18.7 65.7 38 4.2 39.6 0 0
09:03 1022 30.18 851 25.13 18.7 65.7 39 4.6 40.3 0 0
09:04 1022 30.18 851 25.13 18.8 65.8 39 4.6 40.3 0 0
09:05 1022 30.18 851 25.13 18.8 65.9 37 4 39.2 0 0
09:06 1022 30.18 851 25.13 18.8 65.9 38 4.2 39.6 0 0
09:07 1022 30.18 851 25.13 18.9 65.9 40 5.2 41.3 0 0
09:08 1022 30.18 851 25.13 19 66.1 37 4.3 39.7 0 0
09:09 1022 30.18 851 25.13 19.1 66.3 41 5.7 42.3 0 0
09:10 1022 30.18 851 25.13 19.2 66.6 38 4.8 40.7 0 0
09:11 1022 30.18 851 25.13 19.3 66.7 37 4.5 40.1 0 0
09:12 1022 30.18 851 25.13 19.3 66.8 38 4.8 40.6 0 0
09:13 1022 30.18 851 25.13 19.4 67 37 4.4 40 0 0
09:14 1022 30.18 851 25.13 19.5 67.1 36 4.3 39.7 0 0
09:15 1022 30.18 851 25.13 19.7 67.4 43 6.7 44.1 0 0
09:16 1022 30.18 851 25.13 19.8 67.7 39 5.7 42.3 0 0
09:17 1022 30.18 851 25.13 20.1 68.1 38 5.5 42 0 0
09:18 1022 30.18 851 25.13 20.3 68.5 34 4.3 39.7 0 0
09:19 1022 30.18 851 25.13 20.4 68.8 35 4.8 40.6 0 0
09:20 1022 30.18 851 25.13 20.4 68.8 31 3 37.3 0 0
09:21 1022 30.18 851 25.13 20.4 68.8 34 4.1 39.3 0 0
09:22 1022 30.18 851 25.13 20.5 68.8 33 3.9 39.1 0 0
09:23 1022 30.18 851 25.13 20.4 68.8 36 4.9 40.8 0 0
09:24 1022 30.18 851 25.13 20.4 68.8 33 3.9 39 0 0
09:25 1022 30.18 851 25.13 20.4 68.6 36 4.8 40.7 0 0
09:26 1022 30.18 851 25.13 20.4 68.7 37 5.3 41.6 0 0
09:27 1022 30.18 851 25.13 20.5 68.8 36 4.9 40.8 0 0
09:28 1022 30.18 851 25.13 20.6 69 33 3.7 38.7 0 0
09:29 1022 30.18 851 25.13 20.7 69.2 35 5 41 0 0
09:30 1022 30.18 851 25.13 20.8 69.4 33 3.9 39 0 0
09:31 1022 30.18 851 25.13 20.8 69.5 32 3.9 39 0 0
09:32 1022 30.18 851 25.13 20.8 69.4 34 4.6 40.3 0 0
09:33 1021 30.15 851 25.13 20.9 69.6 34 4.8 40.7 0 0
09:34 1021 30.15 851 25.13 21.1 69.9 36 5.6 42.1 0 0
09:35 1021 30.15 851 25.13 21.1 70 33 4.5 40.2 0 0
09:36 1021 30.15 851 25.13 21.2 70.1 33 4.3 39.7 0 0
09:37 1021 30.15 851 25.13 21.2 70.2 34 5 41.1 0 0
09:38 1021 30.15 851 25.13 21.3 70.3 34 5 40.9 0 0
09:39 1021 30.15 851 25.13 21.4 70.5 31 3.9 39.1 0 0
09:40 1021 30.15 851 25.13 21.4 70.5 34 4.9 40.9 0 0
09:41 1021 30.15 851 25.13 21.4 70.5 34 5 41 0 0
09:42 1021 30.15 851 25.13 21.5 70.6 37 6.5 43.6 0 0
09:43 1021 30.15 851 25.13 21.5 70.7 33 4.5 40.2 0 0
09:44 1021 30.15 851 25.13 21.5 70.7 32 4.1 39.3 0 0
09:45 1021 30.15 851 25.13 21.5 70.7 33 4.9 40.8 0 0
09:46 1021 30.15 851 25.13 21.6 70.8 36 6.1 43 0 0
09:47 1021 30.15 851 25.13 21.7 71 37 6.5 43.8 0 0
09:48 1021 30.15 851 25.13 21.8 71.2 33 5.1 41.2 0 0
09:49 1021 30.15 851 25.13 21.7 71 32 4.5 40 0 0
09:50 1021 30.15 851 25.13 21.7 71.1 36 6.1 42.9 0 0
09:51 1021 30.15 851 25.13 21.9 71.3 32 4.5 40.1 0 0
09:52 1021 30.15 851 25.13 21.9 71.4 33 5.3 41.5 0 0
09:53 1021 30.15 851 25.13 21.9 71.4 34 5.4 41.7 0 0
09:54 1021 30.15 851 25.13 21.8 71.3 33 5 41 0 0
09:55 1021 30.15 851 25.13 22 71.5 35 6 42.9 0 0
09:56 1021 30.15 851 25.13 22 71.6 32 4.9 40.9 0 0
09:57 1021 30.15 851 25.13 22.1 71.7 33 5.4 41.7 0 0
09:58 1021 30.15 851 25.13 22.2 71.9 31 4.4 39.9 0 0
09:59 1021 30.15 851 25.13 22.3 72.2 34 6 42.8 0 0
10:00 1021 30.15 850 25.1 22.4 72.4 31 4.6 40.2 0 0
10:01 1021 30.15 850 25.1 22.4 72.4 31 4.6 40.4 0 0
10:02 1021 30.15 850 25.1 22.6 72.6 32 5.2 41.4 0 0
10:03 1021 30.15 850 25.1 22.7 72.8 31 4.7 40.5 0 0
10:04 1021 30.15 850 25.1 22.8 73 31 5.1 41.1 0 0
10:05 1021 30.15 850 25.1 23 73.4 31 5.3 41.5 0 0
10:06 1021 30.15 850 25.1 23.1 73.6 33 6.1 42.9 0 0
10:07 1021 30.15 850 25.1 23.2 73.8 32 5.6 42.1 0 0
10:08 1021 30.15 850 25.1 23.2 73.8 31 5.5 41.8 0 0
10:09 1021 30.15 850 25.1 23.3 73.9 31 5.3 41.5 0 0
10:10 1021 30.15 850 25.1 23.2 73.7 32 5.6 42 0 0
10:11 1021 30.15 851 25.13 23.1 73.6 30 4.8 40.7 0 0
10:12 1021 30.15 850 25.1 23.1 73.6 30 4.7 40.5 0 0
10:13 1021 30.15 850 25.1 23.1 73.5 29 4.1 39.3 0 0
10:14 1021 30.15 850 25.1 23.1 73.5 29 4.2 39.6 0 0
10:15 1021 30.15 850 25.1 23.3 74 30 5 41 0 0
10:16 1021 30.15 850 25.1 23.4 74.2 31 5.5 41.9 0 0
10:17 1021 30.15 850 25.1 23.4 74.1 29 4.7 40.4 0 0
10:18 1021 30.15 850 25.1 23.5 74.3 31 5.6 42 0 0
10:19 1021 30.15 850 25.1 23.7 74.7 29 4.9 40.8 0 0
10:20 1021 30.15 850 25.1 23.8 74.8 28 4.4 39.9 0 0
10:21 1021 30.15 850 25.1 23.7 74.7 30 5.2 41.3 0 0
10:22 1021 30.15 850 25.1 23.7 74.7 30 5.5 41.9 0 0
10:23 1021 30.15 851 25.13 23.8 74.9 30 5.6 42.1 0 0
10:24 1021 30.15 851 25.13 23.9 75 29 5 41 0 0
10:25 1021 30.15 851 25.13 23.8 74.9 29 5.2 41.3 0 0
10:26 1021 30.15 851 25.13 23.8 74.8 32 6.1 43.1 0 0
10:27 1021 30.15 851 25.13 23.7 74.7 30 5.2 41.4 0 0
10:28 1021 30.15 851 25.13 23.6 74.5 35 7.3 45.2 0 0
10:29 1021 30.15 851 25.13 23.5 74.2 33 6.3 43.3 0 0
10:30 1021 30.15 851 25.13 23.3 73.9 35 7.3 45.1 0 0
10:31 1021 30.15 851 25.13 23.2 73.8 34 6.8 44.2 0 0
10:32 1021 30.15 851 25.13 23.1 73.6 34 6.7 44 0 0
10:33 1021 30.15 851 25.13 23 73.4 33 6.1 43 0 0
10:34 1021 30.15 851 25.13 22.9 73.3 33 6.1 42.9 0 0
10:35 1021 30.15 851 25.13 22.9 73.2 33 6 42.7 0 0
10:36 1021 30.15 851 25.13 22.8 73.1 35 6.7 44 0 0
10:37 1021 30.15 851 25.13 22.8 73 36 7 44.5 0 0
10:38 1021 30.15 851 25.13 22.8 73 38 8 46.3 0 0
10:39 1021 30.15 851 25.13 22.8 73.1 32 5.3 41.6 0 0
10:40 1021 30.15 851 25.13 22.9 73.2 32 5.8 42.4 0 0
10:41 1021 30.15 851 25.13 23 73.4 35 6.9 44.5 0 0
10:42 1021 30.15 851 25.13 23.1 73.6 33 6.1 43 0 0
10:43 1021 30.15 851 25.13 23.2 73.8 31 5.4 41.7 0 0
10:44 1021 30.15 851 25.13 23.4 74.1 32 6 42.8 0 0
10:45 1021 30.15 851 25.13 23.5 74.3 29 4.8 40.7 0 0
10:46 1021 30.15 851 25.13 23.6 74.5 29 4.5 40.2 0 0
10:47 1021 30.15 851 25.13 23.5 74.4 29 4.6 40.3 0 0
10:48 1021 30.15 851 25.13 23.5 74.3 30 5 40.9 0 0
10:49 1021 30.15 851 25.13 23.6 74.5 30 5.4 41.6 0 0
10:50 1021 30.15 850 25.1 23.8 74.8 29 5 41.1 0 0
10:51 1021 30.15 850 25.1 24 75.2 31 5.9 42.6 0 0
10:52 1021 30.15 850 25.1 24.1 75.4 30 5.6 42.1 0 0
10:53 1021 30.15 850 25.1 24.1 75.4 29 5 41 0 0
10:54 1021 30.15 850 25.1 24.1 75.4 30 5.5 41.9 0 0
10:55 1021 30.15 850 25.1 24.1 75.4 30 5.8 42.4 0 0
10:56 1021 30.15 850 25.1 24.1 75.4 33 7.1 44.8 0 0
10:57 1021 30.15 850 25.1 24.3 75.7 31 6.1 43 0 0
10:58 1021 30.15 850 25.1 24.4 75.9 29 5.4 41.7 0 0
10:59 1021 30.15 850 25.1 24.5 76.1 28 4.9 40.8 0 0
11:00 1021 30.15 850 25.1 24.5 76.1 28 5 41.1 0 0
11:01 1021 30.15 850 25.1 24.5 76.1 31 6.5 43.7 0 0
11:02 1021 30.15 850 25.1 24.4 76 29 5.5 41.8 0 0
11:03 1021 30.15 850 25.1 24.5 76.1 29 5.7 42.2 0 0
11:04 1021 30.15 850 25.1 24.5 76.1 29 5.7 42.3 0 0
11:05 1021 30.15 850 25.1 24.5 76.1 28 5 40.9 0 0
11:06 1021 30.15 850 25.1 24.6 76.3 28 5 41 0 0
11:07 1021 30.15 850 25.1 24.8 76.6 27 4.8 40.6 0 0
11:08 1021 30.15 850 25.1 25 77 29 6.1 43 0 0
11:09 1021 30.15 850 25.1 25.1 77.1 27 5 41 0 0
11:10 1021 30.15 850 25.1 24.9 76.8 27 4.9 40.8 0 0
11:11 1021 30.15 850 25.1 24.7 76.5 27 4.8 40.7 0 0
11:12 1021 30.15 850 25.1 24.7 76.5 30 6.1 43 0 0
11:13 1021 30.15 850 25.1 24.8 76.6 28 5.2 41.4 0 0
11:14 1021 30.15 850 25.1 24.9 76.8 29 6 42.7 0 0
11:15 1021 30.15 850 25.1 24.9 76.8 27 5.1 41.2 0 0
11:16 1021 30.15 850 25.1 24.8 76.6 28 5.5 41.9 0 0
11:17 1021 30.15 850 25.1 24.7 76.5 28 5.4 41.8 0 0
11:18 1021 30.15 850 25.1 24.9 76.7 29 6 42.9 0 0
11:19 1021 30.15 850 25.1 25.2 77.3 29 6 42.8 0 0
11:20 1021 30.15 850 25.1 25.4 77.7 29 6.4 43.5 0 0
11:21 1021 30.15 850 25.1 25.4 77.6 27 5.4 41.7 0 0
11:22 1021 30.15 850 25.1 25.2 77.4 26 4.8 40.7 0 0
11:23 1021 30.15 850 25.1 25.2 77.3 30 6.6 43.9 0 0
11:24 1021 30.15 850 25.1 25.3 77.5 27 5.2 41.3 0 0
11:25 1021 30.15 850 25.1 25.3 77.5 30 6.8 44.3 0 0
11:26 1021 30.15 850 25.1 25.2 77.4 26 4.8 40.6 0 0
11:27 1021 30.15 850 25.1 25.1 77.2 26 4.7 40.5 0 0
11:28 1021 30.15 850 25.1 25.2 77.3 28 5.7 42.3 0 0
11:29 1021 30.15 850 25.1 25.2 77.3 26 4.8 40.6 0 0
11:30 1021 30.15 850 25.1 25.1 77.1 28 5.6 42.1 0 0
11:31 1021 30.15 850 25.1 25 77 29 5.9 42.7 0 0
11:32 1021 30.15 850 25.1 25.1 77.1 30 6.4 43.6 0 0
11:33 1021 30.15 850 25.1 25.2 77.3 31 7 44.6 0 0
11:34 1021 30.15 850 25.1 25.3 77.5 28 5.9 42.6 0 0
11:35 1021 30.15 850 25.1 25.2 77.4 29 6 42.8 0 0
11:36 1021 30.15 850 25.1 25.3 77.5 29 6.1 43 0 0
11:37 1021 30.15 850 25.1 25.3 77.5 29 6.3 43.3 0 0
11:38 1021 30.15 850 25.1 25.3 77.6 27 5.4 41.7 0 0
11:39 1021 30.15 850 25.1 25.4 77.7 31 7.2 45 0 0
11:40 1021 30.15 850 25.1 25.5 77.8 27 5.4 41.8 0 0
11:41 1021 30.15 850 25.1 25.4 77.7 28 6 42.8 0 0
11:42 1021 30.15 850 25.1 25.3 77.5 29 6.3 43.3 0 0
11:43 1021 30.15 850 25.1 25.4 77.7 31 7.3 45.1 0 0
11:44 1021 30.15 850 25.1 25.6 78.1 27 5.4 41.8 0 0
11:45 1021 30.15 850 25.1 25.7 78.2 27 5.3 41.5 0 0
11:46 1021 30.15 850 25.1 25.7 78.3 27 5.4 41.7 0 0
11:47 1021 30.15 850 25.1 25.8 78.4 26 5.1 41.1 0 0
11:48 1021 30.15 850 25.1 26 78.7 27 5.7 42.2 0 0
11:49 1021 30.15 850 25.1 26 78.8 28 6.4 43.6 0 0
11:50 1021 30.15 850 25.1 26 78.7 27 5.7 42.2 0 0
11:51 1021 30.15 850 25.1 25.9 78.6 26 4.9 40.8 0 0
11:52 1021 30.15 850 25.1 25.8 78.4 31 7.8 46.1 0 0
11:53 1021 30.15 850 25.1 26 78.7 27 5.7 42.3 0 0
11:54 1021 30.15 850 25.1 26.1 78.9 26 5.5 42 0 0
11:55 1021 30.15 850 25.1 26 78.8 26 5.5 42 0 0
11:56 1021 30.15 850 25.1 25.9 78.6 30 7.3 45.1 0 0
11:57 1021 30.15 850 25.1 26.1 78.9 27 5.9 42.7 0 0
11:58 1021 30.15 850 25.1 26.2 79.2 28 6.8 44.2 0 0
11:59 1020 30.12 850 25.1 26.3 79.4 28 6.6 43.9 0 0
12:00 1020 30.12 850 25.1 26.4 79.6 26 5.8 42.4 0 0
12:01 1020 30.12 850 25.1 26.3 79.3 28 6.7 44.1 0 0
12:02 1020 30.12 850 25.1 26.3 79.3 27 6 42.8 0 0
12:03 1020 30.12 850 25.1 26.3 79.3 25 5.1 41.1 0 0
12:04 1020 30.12 850 25.1 26.3 79.4 24 4.5 40.1 0 0
12:05 1020 30.12 850 25.1 26.4 79.5 26 5.4 41.7 0 0
12:06 1020 30.12 850 25.1 26.4 79.5 28 6.9 44.4 0 0
12:07 1020 30.12 850 25.1 26.4 79.6 23 3.8 38.9 0 0
12:08 1020 30.12 850 25.1 26.4 79.5 24 4.3 39.8 0 0
12:09 1020 30.12 850 25.1 26.5 79.7 25 5.1 41.2 0 0
12:10 1020 30.12 850 25.1 26.8 80.2 25 5.2 41.3 0 0
12:11 1020 30.12 849 25.07 26.9 80.5 23 4.2 39.6 0 0
12:12 1020 30.12 849 25.07 27 80.6 23 4.6 40.2 0 0
12:13 1020 30.12 849 25.07 27 80.6 25 5.7 42.3 0 0
12:14 1020 30.12 849 25.07 27 80.7 25 5.7 42.2 0 0
12:15 1020 30.12 849 25.07 27 80.6 25 5.4 41.8 0 0
12:16 1020 30.12 849 25.07 27.1 80.8 25 5.4 41.7 0 0
12:17 1020 30.12 849 25.07 27.3 81.1 24 5 40.9 0 0
12:18 1020 30.12 849 25.07 27.3 81.1 23 4.9 40.8 0 0
12:19 1020 30.12 849 25.07 27.2 80.9 24 5 41 0 0
12:20 1020 30.12 849 25.07 27.1 80.7 26 6.3 43.4 0 0
12:21 1020 30.12 849 25.07 27.1 80.8 25 5.7 42.2 0 0
12:22 1020 30.12 849 25.07 27.2 81 22 4 39.2 0 0
12:23 1020 30.12 849 25.07 27.2 80.9 24 5.3 41.5 0 0
12:24 1020 30.12 849 25.07 27.1 80.8 24 5.3 41.5 0 0
12:25 1020 30.12 849 25.07 27.2 80.9 23 4.7 40.5 0 0
12:26 1020 30.12 849 25.07 27.2 80.9 22 4.2 39.6 0 0
12:27 1020 30.12 849 25.07 27.2 81 27 6.7 44.1 0 0
12:28 1020 30.12 849 25.07 27.4 81.4 24 5.4 41.7 0 0
12:29 1020 30.12 849 25.07 27.5 81.4 23 4.6 40.3 0 0
12:30 1020 30.12 849 25.07 27.6 81.6 22 3.9 39.1 0 0
12:31 1020 30.12 849 25.07 27.7 81.9 24 5.4 41.8 0 0
12:32 1020 30.12 849 25.07 27.9 82.2 22 4.6 40.3 0 0
12:33 1020 30.12 849 25.07 27.8 82.1 22 4.2 39.5 0 0
12:34 1020 30.12 849 25.07 27.7 81.8 24 5.5 41.9 0 0
12:35 1020 30.12 849 25.07 27.7 81.8 23 5.2 41.3 0 0
12:36 1020 30.12 849 25.07 27.7 81.9 26 6.8 44.2 0 0
12:37 1020 30.12 849 25.07 27.9 82.2 21 4 39.2 0 0
12:38 1020 30.12 849 25.07 28 82.4 22 4.9 40.8 0 0
12:39 1020 30.12 849 25.07 27.9 82.3 24 5.6 42.1 0 0
12:40 1020 30.12 849 25.07 28 82.4 22 4.5 40.1 0 0
12:41 1020 30.12 849 25.07 28.1 82.7 23 5.4 41.8 0 0
12:42 1020 30.12 849 25.07 28.2 82.7 22 4.9 40.8 0 0
12:43 1020 30.12 849 25.07 28.1 82.6 21 4 39.3 0 0
12:44 1020 30.12 849 25.07 28.1 82.5 21 3.8 38.8 0 0
12:45 1020 30.12 849 25.07 28 82.4 23 5.4 41.7 0 0
12:46 1020 30.12 849 25.07 28.2 82.7 23 5.5 41.8 0 0
12:47 1020 30.12 849 25.07 28.3 82.9 22 4.5 40.2 0 0
12:48 1020 30.12 849 25.07 28.3 83 22 4.9 40.9 0 0
12:49 1020 30.12 849 25.07 28.4 83 22 5.2 41.3 0 0
12:50 1020 30.12 849 25.07 28.3 83 22 4.8 40.7 0 0
12:51 1020 30.12 849 25.07 28.2 82.8 21 4.1 39.3 0 0
12:52 1020 30.12 849 25.07 28.2 82.7 22 5.1 41.2 0 0
12:53 1020 30.12 849 25.07 28.2 82.8 21 4.2 39.6 0 0
12:54 1020 30.12 849 25.07 28.4 83 24 6.2 43.2 0 0
12:55 1020 30.12 849 25.07 28.5 83.4 22 4.9 40.8 0 0
12:56 1020 30.12 849 25.07 28.6 83.5 20 3.8 38.9 0 0
12:57 1020 30.12 849 25.07 28.5 83.3 24 6.3 43.3 0 0
12:58 1020 30.12 849 25.07 28.6 83.5 23 5.8 42.5 0 0
12:59 1020 30.12 849 25.07 28.6 83.5 21 4.7 40.5 0 0
13:00 1020 30.12 849 25.07 28.6 83.4 23 5.5 41.8 0 0
13:01 1019 30.09 849 25.07 28.5 83.3 23 5.8 42.4 0 0
13:02 1019 30.09 849 25.07 28.5 83.3 25 6.6 43.9 0 0
13:03 1019 30.09 849 25.07 28.7 83.6 21 4.6 40.3 0 0
13:04 1019 30.09 849 25.07 28.7 83.6 21 4.6 40.3 0 0
13:05 1019 30.09 849 25.07 28.7 83.6 20 3.9 38.9 0 0
13:06 1019 30.09 849 25.07 28.8 83.8 20 3.6 38.5 0 0
13:07 1019 30.09 849 25.07 28.7 83.7 22 5.4 41.6 0 0
13:08 1019 30.09 849 25.07 28.7 83.6 22 5.3 41.6 0 0
13:09 1019 30.09 849 25.07 28.8 83.8 22 5 41 0 0
13:10 1019 30.09 849 25.07 28.8 83.8 21 4.9 40.8 0 0
13:11 1019 30.09 849 25.07 28.9 84.1 23 6.1 43 0 0
13:12 1019 30.09 849 25.07 28.9 84.1 22 5.1 41.2 0 0
13:13 1019 30.09 849 25.07 29 84.2 22 5.6 42 0 0
13:14 1019 30.09 849 25.07 29.1 84.3 21 4.8 40.6 0 0
13:15 1019 30.09 849 25.07 29 84.2 23 6.4 43.5 0 0
13:16 1019 30.09 848 25.04 29.1 84.4 22 5.6 42 0 0
13:17 1019 30.09 848 25.04 29.3 84.7 22 5.8 42.5 0 0
13:18 1019 30.09 848 25.04 29.3 84.7 24 6.7 44 0 0
13:19 1019 30.09 848 25.04 29.3 84.7 20 4.6 40.2 0 0
13:20 1019 30.09 848 25.04 29.1 84.4 21 5 41.1 0 0
13:21 1019 30.09 848 25.04 29.1 84.4 24 6.7 44.1 0 0
13:22 1019 30.09 848 25.04 29.1 84.4 22 5.7 42.3 0 0
13:23 1019 30.09 848 25.04 29.2 84.6 22 5.7 42.3 0 0
13:24 1019 30.09 848 25.04 29.6 85.2 21 5.3 41.6 0 0
13:25 1019 30.09 848 25.04 29.7 85.5 21 5.2 41.3 0 0
13:26 1019 30.09 848 25.04 29.6 85.3 22 5.8 42.5 0 0
13:27 1019 30.09 848 25.04 29.7 85.4 21 5.3 41.6 0 0
13:28 1019 30.09 848 25.04 29.8 85.6 21 5.6 42.1 0 0
13:29 1019 30.09 848 25.04 29.9 85.9 19 3.9 39.1 0 0
13:30 1019 30.09 848 25.04 30 85.9 21 5.4 41.7 0 0
13:31 1019 30.09 848 25.04 30 85.9 23 6.9 44.3 0 0
13:32 1019 30.09 848 25.04 30 86.1 21 5.8 42.4 0 0
13:33 1019 30.09 848 25.04 30.1 86.1 21 5.7 42.2 0 0
13:34 1019 30.09 848 25.04 30 86 19 4.1 39.4 0 0
13:35 1019 30.09 848 25.04 29.8 85.7 23 7.1 44.7 0 0
13:36 1019 30.09 848 25.04 29.9 85.8 20 4.5 40.1 0 0
13:37 1019 30.09 848 25.04 29.8 85.7 19 4.1 39.4 0 0
13:38 1019 30.09 848 25.04 29.8 85.6 21 5.3 41.5 0 0
13:39 1019 30.09 848 25.04 29.7 85.4 20 4.3 39.8 0 0
13:40 1019 30.09 848 25.04 29.6 85.2 20 4.7 40.5 0 0
13:41 1019 30.09 848 25.04 29.5 85 21 5.1 41.2 0 0
13:42 1019 30.09 848 25.04 29.4 84.9 23 6.6 43.9 0 0
13:43 1019 30.09 848 25.04 29.6 85.3 22 5.9 42.5 0 0
13:44 1019 30.09 848 25.04 29.8 85.6 21 5.4 41.7 0 0
13:45 1019 30.09 848 25.04 29.8 85.6 20 5.1 41.1 0 0
13:46 1019 30.09 848 25.04 29.7 85.4 20 4.5 40 0 0
13:47 1019 30.09 848 25.04 29.4 85 21 5.2 41.3 0 0
13:48 1019 30.09 848 25.04 29.3 84.7 20 4.2 39.5 0 0
13:49 1019 30.09 848 25.04 29.2 84.6 23 6.4 43.6 0 0
13:50 1019 30.09 848 25.04 29.2 84.6 21 4.9 40.8 0 0
13:51 1019 30.09 848 25.04 29.2 84.6 22 5.4 41.7 0 0
13:52 1019 30.09 848 25.04 29.2 84.6 21 5 41 0 0
13:53 1019 30.09 848 25.04 29.2 84.6 20 4.6 40.2 0 0
13:54 1019 30.09 848 25.04 29.3 84.7 20 4.3 39.7 0 0
13:55 1019 30.09 848 25.04 29.3 84.8 18 3.3 37.9 0 0
13:56 1019 30.09 848 25.04 29.3 84.7 21 4.7 40.5 0 0
13:57 1019 30.09 848 25.04 29.1 84.5 21 5.1 41.1 0 0
13:58 1019 30.09 848 25.04 29.2 84.5 19 3.2 37.8 0 0
13:59 1019 30.09 848 25.04 29.4 84.9 22 5.8 42.4 0 0
14:00 1019 30.09 848 25.04 29.5 85.2 22 5.7 42.2 0 0
14:01 1019 30.09 848 25.04 29.6 85.3 21 5.3 41.5 0 0
14:02 1019 30.09 848 25.04 29.7 85.4 20 4.9 40.8 0 0
14:03 1019 30.09 848 25.04 29.6 85.3 18 3.1 37.7 0 0
14:04 1019 30.09 848 25.04 29.6 85.2 20 4.2 39.6 0 0
14:05 1019 30.09 848 25.04 29.7 85.5 20 4.4 40 0 0
14:06 1019 30.09 848 25.04 29.7 85.5 22 5.8 42.4 0 0
14:07 1019 30.09 848 25.04 29.7 85.5 18 3.4 38.2 0 0
14:08 1019 30.09 848 25.04 29.7 85.5 20 4.5 40.1 0 0
14:09 1019 30.09 848 25.04 29.8 85.7 20 5 41 0 0
14:10 1019 30.09 848 25.04 29.8 85.6 21 5.5 42 0 0
14:11 1019 30.09 848 25.04 29.7 85.5 20 5 41 0 0
14:12 1019 30.09 848 25.04 29.7 85.4 21 5.3 41.6 0 0
14:13 1019 30.09 848 25.04 29.6 85.3 19 3.7 38.6 0 0
14:14 1019 30.09 848 25.04 29.5 85.1 19 4 39.2 0 0
14:15 1019 30.09 848 25.04 29.4 84.9 19 3.8 38.8 0 0
14:16 1019 30.09 848 25.04 29.4 84.9 19 3.3 38 0 0
14:17 1019 30.09 848 25.04 29.4 84.8 19 3.7 38.6 0 0
14:18 1019 30.09 848 25.04 29.5 85.1 21 5.3 41.5 0 0
14:19 1019 30.09 848 25.04 29.6 85.2 21 5.4 41.8 0 0
14:20 1019 30.09 848 25.04 29.6 85.3 20 4.6 40.4 0 0
14:21 1019 30.09 848 25.04 29.7 85.4 20 4.4 39.9 0 0
14:22 1019 30.09 848 25.04 29.7 85.5 18 2.9 37.3 0 0
14:23 1019 30.09 848 25.04 29.7 85.5 19 3.8 38.8 0 0
14:24 1019 30.09 848 25.04 29.8 85.6 21 5.4 41.8 0 0
14:25 1019 30.09 848 25.04 30 85.9 21 5.6 42.1 0 0
14:26 1019 30.09 848 25.04 30.1 86.2 21 5.4 41.8 0 0
14:27 1019 30.09 848 25.04 30.1 86.2 20 4.7 40.5 0 0
14:28 1019 30.09 848 25.04 30 86.1 22 6.1 42.9 0 0
14:29 1019 30.09 848 25.04 30.1 86.2 20 5 40.9 0 0
14:30 1019 30.09 848 25.04 30 86.1 18 3.2 37.8 0 0
14:31 1019 30.09 848 25.04 29.9 85.8 21 5.4 41.6 0 0
14:32 1019 30.09 848 25.04 29.8 85.6 18 3.5 38.2 0 0
14:33 1019 30.09 848 25.04 29.7 85.4 21 5 41.1 0 0
14:34 1019 30.09 848 25.04 29.5 85 18 3.1 37.7 0 0
14:35 1018 30.06 848 25.04 29.4 84.8 20 4.5 40.2 0 0
14:36 1018 30.06 848 25.04 29.3 84.8 19 3.8 38.8 0 0
14:37 1018 30.06 848 25.04 29.4 85 20 4.2 39.6 0 0
14:38 1018 30.06 848 25.04 29.5 85.2 19 3.7 38.7 0 0
14:39 1018 30.06 848 25.04 29.7 85.5 20 4.9 40.8 0 0
14:40 1018 30.06 848 25.04 29.8 85.7 18 3.6 38.5 0 0
14:41 1018 30.06 848 25.04 29.9 85.9 19 4.4 39.9 0 0
14:42 1018 30.06 848 25.04 30 86.1 17 3.1 37.5 0 0
14:43 1018 30.06 848 25.04 30 85.9 18 3.6 38.5 0 0
14:44 1018 30.06 847 25.01 30 85.9 20 4.9 40.9 0 0
14:45 1018 30.06 847 25.01 30.1 86.2 21 5.9 42.6 0 0
14:46 1018 30.06 847 25.01 30.2 86.4 21 5.7 42.3 0 0
14:47 1018 30.06 847 25.01 30.2 86.4 20 5.2 41.4 0 0
14:48 1018 30.06 847 25.01 30.2 86.3 20 5.1 41.2 0 0
14:49 1018 30.06 847 25.01 30.1 86.3 18 3.9 39 0 0
14:50 1018 30.06 847 25.01 29.9 85.9 24 7.3 45.2 0 0
14:51 1018 30.06 847 25.01 29.8 85.6 23 6.5 43.6 0 0
14:52 1018 30.06 847 25.01 29.7 85.4 24 7.5 45.4 0 0
14:53 1018 30.06 847 25.01 29.6 85.3 23 6.9 44.4 0 0
14:54 1018 30.06 847 25.01 29.5 85.1 18 3 37.5 0 0
14:55 1018 30.06 847 25.01 29.3 84.7 20 4.3 39.7 0 0
14:56 1018 30.06 847 25.01 29.2 84.6 22 5.8 42.4 0 0
14:57 1018 30.06 847 25.01 29.2 84.6 22 5.5 41.9 0 0
14:58 1018 30.06 847 25.01 29.2 84.5 22 5.6 42.1 0 0
14:59 1018 30.06 847 25.01 29.2 84.5 18 3.1 37.5 0 0
15:00 1018 30.06 847 25.01 29.1 84.4 20 4.3 39.7 0 0
15:01 1018 30.06 847 25.01 29.1 84.4 20 4.5 40.1 0 0
15:02 1018 30.06 847 25.01 29.1 84.4 20 4.5 40.1 0 0
15:03 1018 30.06 847 25.01 29.1 84.3 18 2.8 37 0 0
15:04 1018 30.06 847 25.01 29.1 84.3 18 2.9 37.2 0 0
15:05 1018 30.06 847 25.01 29 84.2 23 5.8 42.5 0 0
15:06 1018 30.06 847 25.01 29.1 84.3 23 6.1 43 0 0
15:07 1018 30.06 847 25.01 29.1 84.3 24 7 44.6 0 0
15:08 1018 30.06 847 25.01 29 84.2 19 3.1 37.6 0 0
15:09 1018 30.06 847 25.01 29 84.2 20 4 39.3 0 0
15:10 1018 30.06 847 25.01 29.1 84.3 21 5.1 41.2 0 0
15:11 1018 30.06 847 25.01 29.1 84.5 23 6.1 43 0 0
15:12 1018 30.06 847 25.01 29.3 84.7 22 5.6 42.1 0 0
15:13 1018 30.06 847 25.01 29.5 85.1 22 5.7 42.2 0 0
15:14 1018 30.06 847 25.01 29.7 85.5 20 4.5 40.1 0 0
15:15 1018 30.06 847 25.01 29.9 85.8 22 5.9 42.7 0 0
15:16 1018 30.06 847 25.01 29.9 85.8 17 2.5 36.5 0 0
15:17 1018 30.06 847 25.01 29.6 85.3 19 3.6 38.6 0 0
15:18 1018 30.06 847 25.01 29.5 85.1 20 4.5 40.1 0 0
15:19 1018 30.06 847 25.01 29.4 84.8 18 3.2 37.8 0 0
15:20 1018 30.06 847 25.01 29.3 84.7 18 2.7 36.9 0 0
15:21 1018 30.06 847 25.01 29.2 84.5 19 3.4 38.1 0 0
15:22 1018 30.06 847 25.01 29.3 84.7 17 2.2 36 0 0
15:23 1018 30.06 847 25.01 29.3 84.7 19 3.4 38.1 0 0
15:24 1018 30.06 847 25.01 29.3 84.7 18 2.7 36.8 0 0
15:25 1018 30.06 847 25.01 29.3 84.7 20 4.2 39.6 0 0
15:26 1018 30.06 847 25.01 29.4 84.8 20 4.1 39.3 0 0
15:27 1018 30.06 847 25.01 29.4 84.9 20 4.3 39.8 0 0
15:28 1018 30.06 847 25.01 29.5 85.1 20 4.6 40.2 0 0
15:29 1018 30.06 847 25.01 29.7 85.4 21 5.6 42 0 0
15:30 1018 30.06 847 25.01 29.7 85.5 20 4.5 40.1 0 0
15:31 1018 30.06 847 25.01 29.6 85.4 19 3.8 38.8 0 0
15:32 1018 30.06 847 25.01 29.6 85.3 17 2 35.7 0 0
15:33 1018 30.06 847 25.01 29.6 85.3 18 3.5 38.2 0 0
15:34 1018 30.06 847 25.01 29.7 85.4 20 4.9 40.7 0 0
15:35 1018 30.06 847 25.01 29.7 85.5 19 3.8 38.9 0 0
15:36 1018 30.06 847 25.01 29.7 85.5 19 3.7 38.6 0 0
15:37 1018 30.06 847 25.01 29.7 85.5 18 3.5 38.2 0 0
15:38 1018 30.06 847 25.01 29.7 85.5 17 2.2 36 0 0
15:39 1018 30.06 847 25.01 29.7 85.5 17 2.2 35.9 0 0
15:40 1018 30.06 847 25.01 29.7 85.4 18 3.1 37.6 0 0
15:41 1018 30.06 847 25.01 29.6 85.4 22 6.1 43.1 0 0
15:42 1018 30.06 847 25.01 29.5 85.1 20 4.4 39.9 0 0
15:43 1018 30.06 847 25.01 29.3 84.8 21 4.8 40.6 0 0
15:44 1018 30.06 847 25.01 29.1 84.3 21 5 41.1 0 0
15:45 1018 30.06 847 25.01 28.9 84 20 4.1 39.4 0 0
15:46 1018 30.06 847 25.01 28.8 83.8 23 5.7 42.2 0 0
15:47 1018 30.06 847 25.01 28.7 83.6 19 3.2 37.8 0 0
15:48 1018 30.06 847 25.01 28.5 83.3 22 5.3 41.6 0 0
15:49 1018 30.06 847 25.01 28.5 83.2 21 4.6 40.3 0 0
15:50 1018 30.06 847 25.01 28.4 83.1 22 4.8 40.6 0 0
15:51 1018 30.06 847 25.01 28.3 83 21 4.3 39.7 0 0
15:52 1018 30.06 847 25.01 28.3 82.9 21 4.2 39.6 0 0
15:53 1017 30.03 847 25.01 28.3 82.9 22 4.6 40.3 0 0
15:54 1018 30.06 847 25.01 28.3 83 20 3.9 38.9 0 0
15:55 1018 30.06 847 25.01 28.3 83 24 6.1 43 0 0
15:56 1017 30.03 847 25.01 28.3 82.9 24 6.4 43.5 0 0
15:57 1018 30.06 847 25.01 28.1 82.7 25 6.4 43.6 0 0
15:58 1018 30.06 847 25.01 28 82.4 25 6.1 43.1 0 0
15:59 1018 30.06 847 25.01 27.8 82 25 6.2 43.2 0 0
16:00 1017 30.03 847 25.01 27.7 81.8 23 5.1 41.2 0 0
16:01 1017 30.03 847 25.01 27.7 81.8 24 5.4 41.7 0 0
16:02 1017 30.03 847 25.01 27.7 81.8 25 6 42.8 0 0
16:03 1018 30.06 847 25.01 27.6 81.7 25 6.2 43.2 0 0
16:04 1018 30.06 847 25.01 27.6 81.6 24 5.6 42 0 0
16:05 1017 30.03 847 25.01 27.5 81.6 24 5.5 42 0 0
16:06 1017 30.03 847 25.01 27.6 81.6 24 5.3 41.6 0 0
16:07 1017 30.03 847 25.01 27.6 81.6 27 7 44.7 0 0
16:08 1017 30.03 847 25.01 27.6 81.6 25 6.4 43.5 0 0
16:09 1017 30.03 847 25.01 27.6 81.7 21 3.8 38.9 0 0
16:10 1017 30.03 847 25.01 27.7 81.8 23 4.8 40.7 0 0
16:11 1017 30.03 847 25.01 27.7 81.9 20 3.3 38 0 0
16:12 1017 30.03 847 25.01 27.8 82 23 4.8 40.6 0 0
16:13 1017 30.03 847 25.01 27.8 82 23 4.9 40.7 0 0
16:14 1017 30.03 847 25.01 27.7 81.9 23 5.3 41.5 0 0
16:15 1017 30.03 847 25.01 27.6 81.7 24 5.3 41.5 0 0
16:16 1018 30.06 847 25.01 27.5 81.4 23 4.8 40.6 0 0
16:17 1018 30.06 847 25.01 27.5 81.4 23 4.7 40.4 0 0
16:18 1018 30.06 847 25.01 27.4 81.4 22 4.2 39.6 0 0
16:19 1017 30.03 847 25.01 27.4 81.3 23 4.5 40.1 0 0
16:20 1017 30.03 847 25.01 27.4 81.3 25 5.6 42.1 0 0
16:21 1017 30.03 847 25.01 27.3 81.1 25 5.8 42.5 0 0
16:22 1017 30.03 847 25.01 27.2 81 23 4.8 40.7 0 0
16:23 1017 30.03 847 25.01 27.1 80.9 25 5.4 41.8 0 0
16:24 1017 30.03 847 25.01 27.1 80.8 24 5.3 41.5 0 0
16:25 1017 30.03 847 25.01 27 80.6 24 5 41 0 0
16:26 1018 30.06 847 25.01 27 80.5 26 6 42.9 0 0
16:27 1018 30.06 847 25.01 26.8 80.3 25 5.5 41.8 0 0
16:28 1018 30.06 847 25.01 26.7 80.1 26 5.8 42.4 0 0
16:29 1018 30.06 847 25.01 26.6 79.9 25 5.5 41.9 0 0
16:30 1018 30.06 847 25.01 26.5 79.7 26 5.7 42.3 0 0
16:31 1018 30.06 847 25.01 26.4 79.5 27 6 42.8 0 0
16:32 1018 30.06 847 25.01 26.3 79.3 26 5.3 41.5 0 0
16:33 1018 30.06 847 25.01 26.2 79.1 25 4.9 40.8 0 0
16:34 1018 30.06 847 25.01 26.2 79.2 26 5.4 41.7 0 0
16:35 1018 30.06 847 25.01 26.2 79.1 26 5.4 41.7 0 0
16:36 1018 30.06 847 25.01 26.1 79 26 5.1 41.2 0 0
16:37 1018 30.06 847 25.01 26.1 79 26 5.1 41.2 0 0
16:38 1018 30.06 847 25.01 26.1 79 26 5.3 41.5 0 0
16:39 1018 30.06 847 25.01 26.1 79 26 5.3 41.6 0 0
16:40 1018 30.06 847 25.01 26.1 78.9 27 5.7 42.2 0 0
16:41 1018 30.06 847 25.01 25.9 78.6 30 7.4 45.3 0 0
16:42 1018 30.06 847 25.01 25.5 77.8 31 7.3 45.1 0 0
16:43 1018 30.06 847 25.01 25.1 77.2 28 5.5 41.9 0 0
16:44 1018 30.06 847 25.01 24.9 76.8 27 4.6 40.3 0 0
16:45 1018 30.06 847 25.01 24.7 76.4 29 5.6 42.1 0 0
16:46 1018 30.06 848 25.04 24.4 76 29 5.4 41.7 0 0
16:47 1018 30.06 848 25.04 24.2 75.6 28 5 40.9 0 0
16:48 1018 30.06 848 25.04 24.1 75.3 30 5.7 42.2 0 0
16:49 1018 30.06 848 25.04 23.8 74.8 30 5.3 41.5 0 0
16:50 1018 30.06 848 25.04 23.6 74.5 30 5.3 41.5 0 0
16:51 1019 30.09 848 25.04 23.5 74.2 32 5.9 42.5 0 0
16:52 1018 30.06 848 25.04 23.3 73.9 32 5.7 42.2 0 0
16:53 1018 30.06 848 25.04 23.1 73.6 33 6.1 43.1 0 0
16:54 1018 30.06 848 25.04 22.8 73.1 37 7.5 45.5 0 0
16:55 1018 30.06 848 25.04 22.3 72.1 43 9.4 49 0 0
16:56 1019 30.09 848 25.04 21.4 70.4 49 10.2 50.4 0 0
16:57 1019 30.09 848 25.04 20.5 68.9 51 10.2 50.4 0 0
16:58 1019 30.09 848 25.04 19.9 67.8 52 10 50 0 0
16:59 1019 30.09 848 25.04 19.5 67 51 9.2 48.6 0 0
17:00 1019 30.09 848 25.04 19.3 66.8 55 10.2 50.4 0 0
17:01 1019 30.09 848 25.04 19.1 66.4 58 10.8 51.5 0 0
17:02 1019 30.09 848 25.04 18.8 65.9 60 11 51.8 0 0
17:03 1019 30.09 848 25.04 18.6 65.5 58 10.4 50.7 0 0
17:04 1019 30.09 848 25.04 18.5 65.2 58 10.1 50.1 0 0
17:05 1019 30.09 848 25.04 18.5 65.2 58 10.2 50.3 0 0
17:06 1019 30.09 848 25.04 18.4 65 60 10.5 50.9 .2 0.008
17:07 1019 30.09 848 25.04 18.3 64.9 61 10.8 51.4 0 0
17:08 1019 30.09 848 25.04 18.1 64.6 59 10.2 50.4 0 0
17:09 1019 30.09 848 25.04 18.1 64.6 62 10.8 51.5 0 0
17:10 1019 30.09 848 25.04 18 64.5 61 10.4 50.7 0 0
17:11 1019 30.09 848 25.04 18 64.5 61 10.5 51 0 0
17:12 1019 30.09 848 25.04 18.2 64.7 60 10.3 50.6 .2 0.008
17:13 1019 30.09 848 25.04 18.3 65 58 10.1 50.2 0 0
17:14 1019 30.09 848 25.04 18.6 65.4 54 9.2 48.5 .2 0.008
17:15 1019 30.09 848 25.04 18.9 66.1 56 10.1 50.2 0 0
17:16 1018 30.06 848 25.04 19.2 66.5 54 9.7 49.4 0 0
17:17 1018 30.06 848 25.04 19.4 66.9 51 9.2 48.5 0 0
17:18 1018 30.06 848 25.04 19.8 67.6 50 9.3 48.7 0 0
17:19 1018 30.06 848 25.04 20.1 68.2 49 9.3 48.7 0 0
17:20 1018 30.06 848 25.04 20.3 68.6 51 10 50 0 0
17:21 1018 30.06 848 25.04 20.4 68.7 55 11.2 52.2 0 0
17:22 1019 30.09 848 25.04 20.4 68.7 55 11.3 52.3 0 0
17:23 1019 30.09 848 25.04 20.4 68.7 52 10.5 50.8 0 0
17:24 1019 30.09 848 25.04 20.5 68.9 56 11.6 53 0 0
17:25 1019 30.09 848 25.04 20.5 68.9 58 12.2 53.9 0 0
17:26 1019 30.09 848 25.04 20.6 69.1 57 11.9 53.5 0 0
17:27 1019 30.09 848 25.04 20.6 69.1 60 12.6 54.6 0 0
17:28 1019 30.09 848 25.04 20.7 69.2 63 13.4 56.1 0 0
17:29 1019 30.09 848 25.04 20.7 69.3 63 13.4 56.2 0 0
17:30 1019 30.09 848 25.04 20.7 69.3 63 13.6 56.5 0 0
17:31 1019 30.09 848 25.04 20.5 68.9 62 13.1 55.6 0 0
17:32 1019 30.09 848 25.04 20.4 68.8 63 13.3 56 0 0
17:33 1019 30.09 848 25.04 20.4 68.6 61 12.8 55 0 0
17:34 1019 30.09 848 25.04 20.3 68.6 59 12.1 53.9 0 0
17:35 1019 30.09 848 25.04 20.4 68.6 60 12.5 54.6 0 0
17:36 1019 30.09 848 25.04 20.4 68.6 63 13.1 55.6 0 0
17:37 1019 30.09 848 25.04 20.4 68.7 62 13 55.3 0 0
17:38 1019 30.09 848 25.04 20.5 68.9 60 12.5 54.5 0 0
17:39 1019 30.09 848 25.04 20.7 69.3 61 12.9 55.3 0 0
17:40 1019 30.09 848 25.04 20.9 69.5 58 12.3 54.2 0 0
17:41 1019 30.09 848 25.04 21 69.8 54 11.5 52.6 0 0
17:42 1019 30.09 848 25.04 21.2 70.2 51 10.8 51.5 0 0
17:43 1019 30.09 848 25.04 21.4 70.6 55 12.3 54.1 0 0
17:44 1019 30.09 848 25.04 21.7 71 58 13.2 55.8 0 0
17:45 1019 30.09 848 25.04 21.8 71.2 57 13.1 55.6 0 0
17:46 1019 30.09 848 25.04 21.8 71.2 57 13.1 55.6 0 0
17:47 1019 30.09 848 25.04 21.7 71.1 61 14.1 57.3 0 0
17:48 1019 30.09 848 25.04 21.5 70.8 59 13.4 56.1 0 0
17:49 1019 30.09 848 25.04 21.4 70.5 60 13.3 56 0 0
17:50 1019 30.09 848 25.04 21.2 70.2 60 13.2 55.8 0 0
17:51 1019 30.09 848 25.04 21.1 69.9 59 12.8 55.1 0 0
17:52 1019 30.09 848 25.04 21 69.8 59 12.7 54.9 0 0
17:53 1019 30.09 848 25.04 20.9 69.7 56 12 53.5 0 0
17:54 1019 30.09 848 25.04 21 69.7 56 12.1 53.8 0 0
17:55 1019 30.09 848 25.04 21 69.8 52 10.9 51.6 0 0
17:56 1019 30.09 848 25.04 21.1 69.9 51 10.7 51.2 0 0
17:57 1019 30.09 848 25.04 21.1 70 51 10.9 51.6 0 0
17:58 1019 30.09 848 25.04 21 69.9 52 10.9 51.5 0 0
17:59 1019 30.09 848 25.04 21 69.7 53 11.1 52 0 0
18:00 1019 30.09 848 25.04 20.9 69.5 54 11.3 52.3 0 0
18:01 1019 30.09 848 25.04 20.7 69.3 56 11.9 53.4 0 0
18:02 1019 30.09 848 25.04 20.6 69.1 56 11.8 53.2 0 0
18:03 1019 30.09 848 25.04 20.5 68.9 58 11.9 53.5 0 0
18:04 1019 30.09 848 25.04 20.4 68.7 59 12.1 53.8 0 0
18:05 1019 30.09 848 25.04 20.3 68.5 55 11.1 52.1 0 0
18:06 1018 30.06 848 25.04 20.4 68.6 56 11.5 52.7 0 0
18:07 1018 30.06 848 25.04 20.4 68.7 56 11.5 52.6 0 0
18:08 1018 30.06 848 25.04 20.4 68.8 56 11.6 52.9 0 0
18:09 1018 30.06 848 25.04 20.4 68.8 56 11.5 52.7 0 0
18:10 1018 30.06 848 25.04 20.5 68.8 57 11.9 53.4 0 0
18:11 1018 30.06 848 25.04 20.5 68.9 58 12.1 53.7 0 0
18:12 1018 30.06 848 25.04 20.5 68.9 59 12.4 54.4 0 0
18:13 1018 30.06 847 25.01 20.4 68.7 62 13 55.4 0 0
18:14 1018 30.06 847 25.01 20.3 68.5 61 12.7 54.9 0 0
18:15 1018 30.06 847 25.01 20.2 68.4 61 12.4 54.4 0 0
18:16 1018 30.06 847 25.01 20.2 68.3 61 12.4 54.4 0 0
18:17 1018 30.06 847 25.01 20.1 68.2 63 13 55.3 0 0
18:18 1018 30.06 847 25.01 20 68 63 12.8 55 0 0
18:19 1018 30.06 847 25.01 20 67.9 64 13.1 55.5 0 0
18:20 1018 30.06 847 25.01 19.9 67.8 64 13 55.5 0 0
18:21 1018 30.06 847 25.01 19.9 67.7 64 13 55.4 0 0
18:22 1018 30.06 847 25.01 19.9 67.7 65 13.1 55.6 0 0
18:23 1018 30.06 847 25.01 19.9 67.7 65 13.1 55.6 0 0
18:24 1018 30.06 847 25.01 19.9 67.8 64 13 55.5 0 0
18:25 1018 30.06 847 25.01 19.9 67.8 64 12.9 55.2 0 0
18:26 1018 30.06 847 25.01 19.9 67.9 64 13.1 55.6 0 0
18:27 1018 30.06 847 25.01 19.9 67.8 64 13 55.5 0 0
18:28 1018 30.06 847 25.01 19.9 67.8 67 13.6 56.5 0 0
18:29 1018 30.06 847 25.01 19.8 67.7 65 13.2 55.8 0 0
18:30 1018 30.06 847 25.01 19.8 67.6 65 13.1 55.5 0 0
18:31 1018 30.06 847 25.01 19.8 67.7 67 13.6 56.5 0 0
18:32 1018 30.06 847 25.01 19.8 67.6 68 13.9 57 0 0
18:33 1018 30.06 847 25.01 19.7 67.5 70 14.2 57.6 0 0
18:34 1018 30.06 847 25.01 19.7 67.4 71 14.3 57.7 0 0
18:35 1018 30.06 847 25.01 19.6 67.3 68 13.7 56.7 0 0
18:36 1018 30.06 847 25.01 19.7 67.4 67 13.4 56.1 0 0
18:37 1018 30.06 847 25.01 19.7 67.4 67 13.5 56.2 0 0
18:38 1018 30.06 847 25.01 19.7 67.4 68 13.8 56.8 0 0
18:39 1018 30.06 847 25.01 19.7 67.4 67 13.6 56.5 0 0
18:40 1018 30.06 847 25.01 19.7 67.4 68 13.6 56.5 0 0
18:41 1018 30.06 847 25.01 19.7 67.4 68 13.6 56.5 0 0
18:42 1018 30.06 847 25.01 19.7 67.4 67 13.5 56.3 0 0
18:43 1018 30.06 847 25.01 19.7 67.4 66 13.2 55.8 0 0
18:44 1018 30.06 847 25.01 19.7 67.5 66 13.3 55.9 0 0
18:45 1018 30.06 847 25.01 19.8 67.6 66 13.4 56.1 0 0
18:46 1018 30.06 847 25.01 19.7 67.5 66 13.3 56 0 0
18:47 1018 30.06 847 25.01 19.8 67.6 65 13.2 55.8 0 0
18:48 1018 30.06 847 25.01 19.8 67.6 67 13.5 56.3 0 0
18:49 1018 30.06 847 25.01 19.8 67.6 66 13.3 56 0 0
18:50 1018 30.06 847 25.01 19.8 67.7 66 13.3 56 0 0
18:51 1018 30.06 847 25.01 19.8 67.7 64 13 55.4 0 0
18:52 1018 30.06 847 25.01 19.8 67.7 65 13.2 55.8 0 0
18:53 1018 30.06 847 25.01 19.8 67.6 66 13.3 56 0 0
18:54 1018 30.06 847 25.01 19.8 67.7 66 13.4 56.2 0 0
18:55 1018 30.06 847 25.01 19.7 67.5 67 13.5 56.3 0 0
18:56 1018 30.06 847 25.01 19.7 67.4 65 13.1 55.6 0 0
18:57 1018 30.06 847 25.01 19.7 67.4 64 12.7 54.9 0 0
18:58 1018 30.06 847 25.01 19.7 67.4 63 12.5 54.4 0 0
18:59 1018 30.06 847 25.01 19.7 67.5 59 11.7 53 0 0
19:00 1018 30.06 847 25.01 19.9 67.7 59 11.8 53.3 0 0
19:01 1018 30.06 847 25.01 20 67.9 60 12.2 53.9 0 0
19:02 1018 30.06 847 25.01 19.9 67.8 62 12.4 54.3 0 0
19:03 1018 30.06 847 25.01 19.9 67.8 63 12.8 55 0 0
19:04 1018 30.06 847 25.01 19.8 67.6 65 13.1 55.5 0 0
19:05 1018 30.06 847 25.01 19.7 67.4 66 13.2 55.7 0 0
19:06 1018 30.06 847 25.01 19.5 67.1 66 13 55.4 0 0
19:07 1018 30.06 847 25.01 19.5 67 64 12.6 54.8 0 0
19:08 1018 30.06 847 25.01 19.5 67 65 12.7 54.9 0 0
19:09 1018 30.06 847 25.01 19.5 67.1 64 12.7 54.8 0 0
19:10 1018 30.06 847 25.01 19.5 67 65 12.7 54.9 0 0
19:11 1018 30.06 847 25.01 19.5 67 64 12.5 54.5 0 0
19:12 1018 30.06 847 25.01 19.4 66.9 64 12.5 54.5 0 0
19:13 1018 30.06 847 25.01 19.4 67 63 12.3 54.1 0 0
19:14 1018 30.06 847 25.01 19.4 67 62 12.1 53.9 0 0
19:15 1018 30.06 847 25.01 19.5 67 61 11.9 53.4 0 0
19:16 1018 30.06 847 25.01 19.4 67 60 11.7 53.1 0 0
19:17 1018 30.06 847 25.01 19.5 67.1 60 11.5 52.8 0 0
19:18 1018 30.06 847 25.01 19.5 67.2 60 11.7 53.1 0 0
19:19 1018 30.06 847 25.01 19.5 67.1 60 11.7 53.1 0 0
19:20 1018 30.06 847 25.01 19.5 67 60 11.6 52.9 0 0
19:21 1018 30.06 847 25.01 19.4 67 61 11.7 53.1 0 0
19:22 1018 30.06 847 25.01 19.4 66.9 61 11.8 53.3 0 0
19:23 1018 30.06 847 25.01 19.3 66.8 63 12.3 54.1 0 0
19:24 1018 30.06 847 25.01 19.2 66.6 65 12.5 54.4 0 0
19:25 1018 30.06 847 25.01 19.1 66.4 66 12.6 54.7 0 0
19:26 1018 30.06 847 25.01 19 66.1 70 13.4 56 0 0
19:27 1018 30.06 847 25.01 18.7 65.7 72 13.6 56.5 0 0
19:28 1018 30.06 847 25.01 18.5 65.4 72 13.5 56.4 0 0
19:29 1018 30.06 847 25.01 18.5 65.3 73 13.6 56.5 0 0
19:30 1018 30.06 847 25.01 18.4 65.2 73 13.6 56.5 0 0
19:31 1018 30.06 847 25.01 18.4 65 74 13.6 56.5 0 0
19:32 1018 30.06 848 25.04 18.3 65 73 13.4 56.2 0 0
19:33 1018 30.06 848 25.04 18.3 64.9 71 13 55.5 0 0
19:34 1018 30.06 848 25.04 18.3 65 70 12.9 55.2 0 0
19:35 1018 30.06 847 25.01 18.4 65 69 12.7 54.9 0 0
19:36 1018 30.06 848 25.04 18.4 65.1 69 12.6 54.7 0 0
19:37 1018 30.06 848 25.04 18.4 65.2 69 12.8 55 0 0
19:38 1018 30.06 848 25.04 18.4 65.2 69 12.7 54.8 0 0
19:39 1018 30.06 848 25.04 18.5 65.2 67 12.2 54 0 0
19:40 1018 30.06 848 25.04 18.6 65.4 66 12.2 54 0 0
19:41 1018 30.06 847 25.01 18.6 65.4 65 12.1 53.7 0 0
19:42 1018 30.06 847 25.01 18.7 65.6 65 12 53.7 0 0
19:43 1018 30.06 847 25.01 18.7 65.7 64 11.9 53.5 0 0
19:44 1018 30.06 847 25.01 18.8 65.8 63 11.7 53.1 0 0
19:45 1018 30.06 848 25.04 18.7 65.7 63 11.7 53.1 0 0
19:46 1018 30.06 848 25.04 18.8 65.8 64 11.9 53.4 0 0
19:47 1018 30.06 848 25.04 18.8 65.8 65 12.2 53.9 0 0
19:48 1018 30.06 848 25.04 18.7 65.6 67 12.4 54.3 0 0
19:49 1018 30.06 848 25.04 18.5 65.3 67 12.3 54.1 0 0
19:50 1018 30.06 848 25.04 18.4 65.1 67 12.2 53.9 0 0
19:51 1018 30.06 848 25.04 18.3 65 67 12.2 54 0 0
19:52 1019 30.09 848 25.04 18.2 64.8 68 12.2 53.9 0 0
19:53 1019 30.09 848 25.04 18.1 64.6 68 12.1 53.9 0 0
19:54 1019 30.09 848 25.04 18 64.5 68 12.2 53.9 0 0
19:55 1019 30.09 848 25.04 18 64.3 69 12.2 53.9 0 0
19:56 1018 30.06 848 25.04 17.9 64.2 69 12.2 53.9 0 0
19:57 1018 30.06 848 25.04 17.7 63.9 70 12.3 54.1 0 0
19:58 1018 30.06 848 25.04 17.6 63.7 70 12.2 54 0 0
19:59 1018 30.06 848 25.04 17.5 63.5 70 12 53.6 0 0
20:00 1018 30.06 848 25.04 17.5 63.5 69 11.9 53.4 0 0
20:01 1018 30.06 848 25.04 17.5 63.5 70 12 53.6 0 0
20:02 1018 30.06 848 25.04 17.5 63.5 70 12.1 53.8 0 0
20:03 1018 30.06 848 25.04 17.5 63.4 70 12.1 53.8 0 0
20:04 1018 30.06 848 25.04 17.4 63.3 71 12.1 53.8 0 0
20:05 1018 30.06 847 25.01 17.4 63.2 71 12.1 53.7 0 0
20:06 1018 30.06 847 25.01 17.3 63.2 71 12 53.6 0 0
20:07 1018 30.06 847 25.01 17.3 63.1 70 11.8 53.3 0 0
20:08 1018 30.06 847 25.01 17.3 63.1 69 11.7 53 0 0
20:09 1018 30.06 847 25.01 17.3 63.2 69 11.6 52.9 0 0
20:10 1018 30.06 847 25.01 17.3 63.2 68 11.3 52.4 0 0
20:11 1018 30.06 847 25.01 17.5 63.5 67 11.4 52.6 0 0
20:12 1018 30.06 847 25.01 17.7 63.8 66 11.3 52.4 0 0
20:13 1018 30.06 847 25.01 17.8 64.1 65 11.2 52.1 0 0
20:14 1018 30.06 847 25.01 18.1 64.5 62 10.7 51.2 0 0
20:15 1018 30.06 847 25.01 18.4 65.2 60 10.5 50.9 0 0
20:16 1018 30.06 847 25.01 18.7 65.6 60 10.8 51.4 0 0
20:17 1018 30.06 847 25.01 18.7 65.7 60 10.9 51.6 0 0
20:18 1018 30.06 848 25.04 18.8 65.8 59 10.8 51.4 0 0
20:19 1018 30.06 848 25.04 18.7 65.7 59 10.6 51.1 0 0
20:20 1018 30.06 847 25.01 18.7 65.7 58 10.5 50.8 0 0
20:21 1018 30.06 847 25.01 18.8 65.9 58 10.5 51 0 0
20:22 1018 30.06 847 25.01 18.9 66 57 10.3 50.6 0 0
20:23 1018 30.06 847 25.01 19 66.1 58 10.7 51.3 0 0
20:24 1018 30.06 847 25.01 18.9 66.1 59 10.8 51.4 0 0
20:25 1018 30.06 847 25.01 18.9 66 59 10.8 51.5 0 0
20:26 1018 30.06 847 25.01 19 66.2 57 10.5 50.9 0 0
20:27 1018 30.06 847 25.01 19.2 66.5 53 9.6 49.3 0 0
20:28 1018 30.06 847 25.01 19.5 67 53 9.8 49.7 0 0
20:29 1018 30.06 847 25.01 19.7 67.5 51 9.4 48.9 0 0
20:30 1018 30.06 847 25.01 20 67.9 52 9.8 49.7 0 0
20:31 1018 30.06 847 25.01 20 68 50 9.5 49.1 0 0
20:32 1018 30.06 847 25.01 20.1 68.2 48 9 48.3 0 0
20:33 1018 30.06 847 25.01 20.2 68.4 48 9 48.2 0 0
20:34 1018 30.06 847 25.01 20.3 68.5 50 9.6 49.3 0 0
20:35 1018 30.06 848 25.04 20.2 68.4 52 10.1 50.2 0 0
20:36 1018 30.06 848 25.04 20 68 52 10.1 50.2 0 0
20:37 1018 30.06 848 25.04 19.8 67.7 51 9.5 49.1 0 0
20:38 1018 30.06 848 25.04 19.8 67.6 51 9.6 49.2 0 0
20:39 1018 30.06 848 25.04 19.8 67.7 50 9.2 48.5 0 0
20:40 1018 30.06 848 25.04 19.9 67.8 50 9.4 48.9 0 0
20:41 1019 30.09 848 25.04 19.9 67.8 50 9.3 48.8 0 0
20:42 1019 30.09 848 25.04 19.9 67.9 50 9.4 48.9 0 0
20:43 1019 30.09 848 25.04 19.9 67.9 50 9.3 48.7 0 0
20:44 1019 30.09 848 25.04 19.9 67.9 49 9.1 48.3 0 0
20:45 1019 30.09 848 25.04 20 67.9 49 9.2 48.5 0 0
20:46 1019 30.09 848 25.04 20 68 50 9.4 49 0 0
20:47 1019 30.09 848 25.04 20 68 52 10 49.9 0 0
20:48 1019 30.09 848 25.04 19.9 67.9 56 10.9 51.6 0 0
20:49 1019 30.09 848 25.04 19.7 67.5 59 11.5 52.7 0 0
20:50 1019 30.09 848 25.04 19.2 66.5 62 11.8 53.2 0 0
20:51 1019 30.09 848 25.04 18.6 65.4 63 11.5 52.7 0 0
20:52 1019 30.09 848 25.04 18.2 64.7 64 11.3 52.3 0 0
20:53 1019 30.09 848 25.04 18 64.3 63 10.8 51.5 0 0
20:54 1019 30.09 848 25.04 17.9 64.2 63 10.7 51.3 0 0
20:55 1019 30.09 848 25.04 17.9 64.3 62 10.6 51 0 0
20:56 1019 30.09 848 25.04 18 64.4 62 10.7 51.3 0 0
20:57 1019 30.09 848 25.04 18 64.4 61 10.4 50.8 0 0
20:58 1019 30.09 849 25.07 18 64.4 62 10.7 51.2 0 0
20:59 1019 30.09 849 25.07 18 64.5 63 10.9 51.7 0 0
21:00 1020 30.12 849 25.07 18 64.4 63 11.1 51.9 0 0
21:01 1020 30.12 849 25.07 17.9 64.3 63 10.9 51.7 0 0
21:02 1020 30.12 849 25.07 18 64.3 62 10.6 51.1 0 0
21:03 1020 30.12 849 25.07 18 64.4 60 10.2 50.4 0 0
21:04 1020 30.12 849 25.07 18.2 64.8 58 10 50 0 0
21:05 1020 30.12 849 25.07 18.4 65.2 57 10 50 0 0
21:06 1020 30.12 849 25.07 18.6 65.4 57 9.9 49.8 0 0
21:07 1020 30.12 849 25.07 18.7 65.6 57 10.1 50.2 0 0
21:08 1020 30.12 849 25.07 18.7 65.7 56 9.9 49.9 0 0
21:09 1020 30.12 849 25.07 18.7 65.6 54 9.4 49 0 0
21:10 1020 30.12 849 25.07 18.8 65.9 54 9.4 48.9 0 0
21:11 1020 30.12 849 25.07 19.1 66.3 54 9.5 49.2 0 0
21:12 1020 30.12 849 25.07 19.2 66.6 52 9.3 48.8 0 0
21:13 1020 30.12 849 25.07 19.3 66.7 54 9.9 49.8 0 0
21:14 1020 30.12 849 25.07 19.2 66.6 54 9.9 49.9 0 0
21:15 1020 30.12 849 25.07 19.1 66.4 55 9.9 49.8 0 0
21:16 1020 30.12 849 25.07 19.1 66.3 52 9.1 48.4 0 0
21:17 1020 30.12 849 25.07 19.2 66.5 52 9.2 48.5 0 0
21:18 1020 30.12 849 25.07 19.3 66.8 51 9 48.3 0 0
21:19 1020 30.12 849 25.07 19.4 66.9 50 8.8 47.9 0 0
21:20 1020 30.12 849 25.07 19.4 66.9 51 9 48.3 0 0
21:21 1020 30.12 849 25.07 19.4 67 51 9 48.3 0 0
21:22 1020 30.12 849 25.07 19.6 67.2 50 8.9 48.1 0 0
21:23 1020 30.12 849 25.07 19.5 67.2 51 9.3 48.7 0 0
21:24 1020 30.12 849 25.07 19.4 67 51 9.1 48.4 0 0
21:25 1020 30.12 849 25.07 19.4 66.9 50 8.8 47.8 0 0
21:26 1020 30.12 849 25.07 19.4 67 50 8.8 47.8 0 0
21:27 1020 30.12 849 25.07 19.5 67 49 8.7 47.6 0 0
21:28 1020 30.12 850 25.1 19.4 67 51 9.1 48.3 0 0
21:29 1020 30.12 850 25.1 19.4 66.8 51 9.1 48.4 0 0
21:30 1020 30.12 850 25.1 19.2 66.6 52 9.3 48.7 0 0
21:31 1020 30.12 850 25.1 19.1 66.4 52 9.2 48.6 0 0
21:32 1020 30.12 849 25.07 19 66.2 50 8.5 47.4 0 0
21:33 1020 30.12 849 25.07 19 66.1 53 9.3 48.7 0 0
21:34 1020 30.12 849 25.07 18.9 66 54 9.4 48.9 0 0
21:35 1020 30.12 849 25.07 18.8 65.8 54 9.3 48.8 0 0
21:36 1020 30.12 849 25.07 18.7 65.6 54 9.2 48.6 0 0
21:37 1020 30.12 849 25.07 18.6 65.5 54 9.1 48.4 0 0
21:38 1020 30.12 849 25.07 18.6 65.5 53 8.9 47.9 0 0
21:39 1020 30.12 849 25.07 18.6 65.5 52 8.8 47.8 0 0
21:40 1020 30.12 849 25.07 18.7 65.7 52 8.7 47.6 0 0
21:41 1020 30.12 849 25.07 18.8 65.8 51 8.5 47.3 0 0
21:42 1020 30.12 849 25.07 18.9 65.9 51 8.6 47.5 0 0
21:43 1020 30.12 849 25.07 19 66.2 50 8.5 47.2 0 0
21:44 1020 30.12 849 25.07 19.1 66.3 49 8.3 46.9 0 0
21:45 1020 30.12 849 25.07 19.2 66.5 50 8.6 47.5 0 0
21:46 1020 30.12 849 25.07 19.2 66.6 51 8.8 47.9 0 0
21:47 1020 30.12 849 25.07 19.1 66.5 50 8.7 47.7 0 0
21:48 1020 30.12 849 25.07 19.1 66.4 51 8.8 47.8 0 0
21:49 1020 30.12 849 25.07 19.1 66.4 52 9 48.2 0 0
21:50 1020 30.12 849 25.07 19.1 66.3 51 8.7 47.7 0 0
21:51 1020 30.12 849 25.07 19.1 66.3 52 9 48.2 0 0
21:52 1020 30.12 849 25.07 19 66.2 51 8.7 47.6 0 0
21:53 1020 30.12 849 25.07 19 66.2 51 8.8 47.8 0 0
21:54 1020 30.12 849 25.07 19 66.2 51 8.7 47.6 0 0
21:55 1020 30.12 849 25.07 19 66.2 50 8.4 47.1 0 0
21:56 1020 30.12 849 25.07 19.1 66.3 50 8.5 47.2 0 0
21:57 1020 30.12 849 25.07 19.1 66.3 50 8.6 47.5 0 0
21:58 1020 30.12 849 25.07 19.1 66.3 50 8.6 47.5 0 0
21:59 1020 30.12 849 25.07 19.1 66.3 51 8.8 47.9 0 0
22:00 1020 30.12 849 25.07 19 66.3 51 8.8 47.9 0 0
22:01 1020 30.12 849 25.07 19 66.2 50 8.6 47.5 0 0
22:02 1020 30.12 849 25.07 19.1 66.3 51 8.7 47.7 0 0
22:03 1020 30.12 849 25.07 19.1 66.3 52 9.1 48.3 0 0
22:04 1020 30.12 849 25.07 19 66.1 52 9.1 48.3 0 0
22:05 1020 30.12 849 25.07 18.9 66 51 8.7 47.6 0 0
22:06 1020 30.12 849 25.07 18.8 65.9 52 8.9 48.1 0 0
22:07 1020 30.12 849 25.07 18.8 65.9 52 9 48.2 0 0
22:08 1020 30.12 849 25.07 18.7 65.6 54 9.4 48.8 0 0
22:09 1020 30.12 849 25.07 18.5 65.4 55 9.3 48.8 0 0
22:10 1020 30.12 849 25.07 18.4 65 58 9.9 49.9 0 0
22:11 1020 30.12 849 25.07 18.1 64.6 60 10.2 50.4 0 0
22:12 1020 30.12 849 25.07 17.8 64.1 61 10.4 50.7 0 0
22:13 1020 30.12 849 25.07 17.5 63.5 63 10.5 50.9 0 0
22:14 1020 30.12 849 25.07 17.2 62.9 65 10.6 51 0 0
22:15 1020 30.12 849 25.07 16.9 62.4 66 10.7 51.2 0 0
22:16 1020 30.12 849 25.07 16.8 62.2 66 10.5 50.8 0 0
22:17 1020 30.12 849 25.07 16.7 62 66 10.4 50.8 0 0
22:18 1020 30.12 849 25.07 16.7 62 67 10.7 51.2 0 0
22:19 1020 30.12 849 25.07 16.6 61.8 67 10.6 51.1 0 0
22:20 1020 30.12 849 25.07 16.6 61.8 66 10.3 50.5 0 0
22:21 1020 30.12 849 25.07 16.6 61.9 66 10.4 50.7 0 0
22:22 1020 30.12 849 25.07 16.6 62 68 10.8 51.5 0 0
22:23 1020 30.12 849 25.07 16.5 61.7 70 11 51.8 0 0
22:24 1020 30.12 849 25.07 16.4 61.5 70 10.9 51.6 0 0
22:25 1019 30.09 849 25.07 16.4 61.4 70 10.9 51.6 0 0
22:26 1019 30.09 849 25.07 16.3 61.3 71 11 51.8 0 0
22:27 1019 30.09 849 25.07 16.2 61.1 72 11.2 52.1 0 0
22:28 1019 30.09 849 25.07 16 60.8 71 10.9 51.6 0 0
22:29 1019 30.09 849 25.07 16 60.9 71 10.8 51.4 0 0
22:30 1019 30.09 849 25.07 16.1 61 70 10.7 51.3 0 0
22:31 1019 30.09 849 25.07 16.2 61.1 71 10.9 51.6 0 0
22:32 1019 30.09 849 25.07 16.2 61.1 71 11 51.8 0 0
22:33 1019 30.09 849 25.07 16.1 60.9 74 11.4 52.5 0 0
22:34 1019 30.09 849 25.07 15.9 60.5 74 11.3 52.3 0 0
22:35 1019 30.09 849 25.07 15.7 60.3 76 11.5 52.7 0 0
22:36 1019 30.09 849 25.07 15.5 60 77 11.5 52.8 0 0
22:37 1019 30.09 849 25.07 15.3 59.6 77 11.4 52.6 0 0
22:38 1019 30.09 849 25.07 15.3 59.5 77 11.3 52.3 0 0
22:39 1019 30.09 849 25.07 15.3 59.5 77 11.4 52.4 0 0
22:40 1019 30.09 849 25.07 15.2 59.4 75 10.9 51.6 0 0
22:41 1019 30.09 849 25.07 15.3 59.6 73 10.5 50.9 0 0
22:42 1019 30.09 848 25.04 15.6 60.1 70 10.2 50.3 0 0
22:43 1019 30.09 848 25.04 15.9 60.6 68 10 50 0 0
22:44 1019 30.09 848 25.04 16 60.9 71 10.8 51.5 0 0
22:45 1019 30.09 848 25.04 16 60.8 72 11 51.9 0 0
22:46 1019 30.09 848 25.04 15.9 60.6 71 10.7 51.3 0 0
22:47 1019 30.09 848 25.04 15.9 60.6 72 10.9 51.5 0 0
22:48 1019 30.09 848 25.04 15.9 60.5 71 10.6 51.1 0 0
22:49 1019 30.09 848 25.04 15.9 60.6 67 9.8 49.7 0 0
22:50 1019 30.09 848 25.04 16.1 61 66 9.8 49.6 0 0
22:51 1019 30.09 848 25.04 16.2 61.2 69 10.7 51.2 0 0
22:52 1019 30.09 848 25.04 16.1 60.9 70 10.7 51.2 0 0
22:53 1019 30.09 848 25.04 15.9 60.7 70 10.6 51.1 0 0
22:54 1019 30.09 848 25.04 15.8 60.5 70 10.5 50.8 0 0
22:55 1019 30.09 848 25.04 15.8 60.5 71 10.6 51 0 0
22:56 1019 30.09 848 25.04 15.8 60.4 72 10.8 51.4 0 0
22:57 1019 30.09 848 25.04 15.7 60.3 72 10.8 51.4 0 0
22:58 1019 30.09 848 25.04 15.6 60.2 72 10.6 51.2 0 0
22:59 1019 30.09 848 25.04 15.7 60.2 73 10.8 51.4 0 0
23:00 1019 30.09 848 25.04 15.6 60.1 70 10.3 50.5 0 0
23:01 1019 30.09 848 25.04 15.6 60.1 72 10.7 51.2 0 0
23:02 1019 30.09 848 25.04 15.5 60 73 10.8 51.4 0 0
23:03 1019 30.09 848 25.04 15.3 59.6 75 10.9 51.7 0 0
23:04 1019 30.09 848 25.04 15.1 59.2 77 11.1 52 0 0
23:05 1019 30.09 848 25.04 15 59 77 11 51.7 0 0
23:06 1019 30.09 848 25.04 15 58.9 77 11.1 51.9 0 0
23:07 1019 30.09 848 25.04 14.9 58.8 78 11 51.9 0 0
23:08 1019 30.09 848 25.04 14.8 58.6 78 11.1 51.9 0 0
23:09 1019 30.09 848 25.04 14.7 58.4 78 10.9 51.7 0 0
23:10 1019 30.09 848 25.04 14.7 58.4 77 10.8 51.4 0 0
23:11 1019 30.09 848 25.04 14.7 58.5 77 10.7 51.3 0 0
23:12 1019 30.09 848 25.04 14.8 58.6 77 10.7 51.3 0 0
23:13 1019 30.09 848 25.04 14.8 58.6 77 10.8 51.5 0 0
23:14 1019 30.09 848 25.04 14.7 58.5 78 10.9 51.6 0 0
23:15 1019 30.09 848 25.04 14.7 58.4 77 10.8 51.5 0 0
23:16 1019 30.09 848 25.04 14.6 58.4 77 10.7 51.3 0 0
23:17 1019 30.09 848 25.04 14.7 58.4 77 10.7 51.2 0 0
23:18 1019 30.09 848 25.04 14.7 58.5 76 10.5 50.9 0 0
23:19 1019 30.09 848 25.04 14.8 58.7 75 10.5 50.9 0 0
23:20 1019 30.09 849 25.07 15 58.9 74 10.4 50.8 0 0
23:21 1019 30.09 848 25.04 15 59 74 10.4 50.8 0 0
23:22 1019 30.09 848 25.04 15.1 59.1 74 10.4 50.7 0 0
23:23 1019 30.09 848 25.04 15.1 59.2 73 10.3 50.5 0 0
23:24 1019 30.09 848 25.04 15.2 59.4 72 10.2 50.4 0 0
23:25 1019 30.09 848 25.04 15.3 59.5 71 10.2 50.4 0 0
23:26 1019 30.09 848 25.04 15.3 59.5 73 10.6 51 0 0
23:27 1019 30.09 848 25.04 15.3 59.5 75 10.9 51.7 0 0
23:28 1019 30.09 848 25.04 15 59 77 11 51.7 0 0
23:29 1019 30.09 848 25.04 14.8 58.7 77 10.9 51.7 0 0
23:30 1019 30.09 848 25.04 14.7 58.4 78 10.9 51.6 0 0
23:31 1019 30.09 848 25.04 14.6 58.2 78 10.8 51.5 0 0
23:32 1019 30.09 848 25.04 14.5 58.1 79 10.9 51.6 0 0
23:33 1019 30.09 848 25.04 14.4 57.9 80 10.9 51.7 0 0
23:34 1019 30.09 848 25.04 14.3 57.8 80 11 51.7 0 0
23:35 1019 30.09 848 25.04 14.3 57.7 80 11 51.7 0 0
23:36 1019 30.09 848 25.04 14.2 57.6 80 11 51.7 0 0
23:37 1019 30.09 848 25.04 14.2 57.6 81 11 51.8 0 0
23:38 1019 30.09 848 25.04 14.2 57.5 81 10.9 51.7 0 0
23:39 1019 30.09 848 25.04 14.2 57.6 81 10.9 51.7 0 0
23:40 1019 30.09 848 25.04 14.2 57.6 81 11 51.8 0 0
23:41 1019 30.09 848 25.04 14.2 57.6 80 10.9 51.6 0 0
23:42 1019 30.09 848 25.04 14.3 57.7 80 10.9 51.6 0 0
23:43 1019 30.09 848 25.04 14.3 57.8 80 10.9 51.6 0 0
23:44 1019 30.09 848 25.04 14.3 57.8 79 10.8 51.5 0 0
23:45 1019 30.09 848 25.04 14.5 58 78 10.7 51.3 0 0
23:46 1019 30.09 848 25.04 14.5 58.2 78 10.7 51.3 0 0
23:47 1019 30.09 848 25.04 14.6 58.3 77 10.7 51.2 0 0
23:48 1019 30.09 848 25.04 14.7 58.4 77 10.7 51.2 0 0
23:49 1019 30.09 848 25.04 14.8 58.6 77 10.7 51.3 0 0
23:50 1019 30.09 848 25.04 14.8 58.6 76 10.7 51.2 0 0
23:51 1019 30.09 848 25.04 14.9 58.8 76 10.7 51.2 0 0
23:52 1019 30.09 848 25.04 14.9 58.8 76 10.7 51.3 0 0
23:53 1019 30.09 848 25.04 14.9 58.8 76 10.7 51.3 0 0
23:54 1019 30.09 848 25.04 14.9 58.9 76 10.8 51.4 0 0
23:55 1019 30.09 848 25.04 14.9 58.9 76 10.8 51.5 0 0
23:56 1019 30.09 848 25.04 14.9 58.8 77 10.9 51.7 0 0
23:57 1019 30.09 848 25.04 14.9 58.7 78 11.1 52 0 0
23:58 1019 30.09 848 25.04 14.7 58.5 79 11.2 52.1 0 0
23:59 1019 30.09 848 25.04 14.6 58.3 79 11.1 52.1 0 0
24:00 1019 30.09 848 25.04 14.6 58.2 79 10.9 51.7 0 0